<?xml version="1.0" encoding="UTF-8" standalone="no" ?>
<gpx xmlns="http://www.topografix.com/GPX/1/1" xmlns:xsi="http://www.w3.org/2001/XMLSchema-instance" xsi:schemaLocation="http://www.topografix.com/GPX/1/1 http://www.topografix.com/GPX/1/1/gpx.xsd" version="1.1" creator="VisuGPX - https://www.visugpx.com">
  <metadata>
    <name>Descente de Bramafan</name>
    <desc><![CDATA[rando vtt 
depart Bramafan puis courmes, plateau St Barnabé et la descente....]]></desc>
  </metadata>
  <trk>
    <name><![CDATA[2014-02-01 bramafan]]></name>
    <trkseg>
      <trkpt lat="43.76299" lon="6.9874">
        <ele>481.8</ele>
        <time>2014-02-01T08:44:33Z</time>
      </trkpt>
      <trkpt lat="43.763" lon="6.98739">
        <ele>491.8</ele>
        <time>2014-02-01T08:44:34Z</time>
      </trkpt>
      <trkpt lat="43.76308" lon="6.98743">
        <ele>522.4</ele>
        <time>2014-02-01T08:47:22Z</time>
      </trkpt>
      <trkpt lat="43.76305" lon="6.98754">
        <ele>521.8</ele>
        <time>2014-02-01T08:51:45Z</time>
      </trkpt>
      <trkpt lat="43.76296" lon="6.9875">
        <ele>522.2</ele>
        <time>2014-02-01T08:52:39Z</time>
      </trkpt>
      <trkpt lat="43.76287" lon="6.98746">
        <ele>522.1</ele>
        <time>2014-02-01T08:53:23Z</time>
      </trkpt>
      <trkpt lat="43.76296" lon="6.98743">
        <ele>520.9</ele>
        <time>2014-02-01T08:54:15Z</time>
      </trkpt>
      <trkpt lat="43.76304" lon="6.98748">
        <ele>521.5</ele>
        <time>2014-02-01T08:55:38Z</time>
      </trkpt>
      <trkpt lat="43.76295" lon="6.98751">
        <ele>521.9</ele>
        <time>2014-02-01T08:59:22Z</time>
      </trkpt>
      <trkpt lat="43.76286" lon="6.98753">
        <ele>521.8</ele>
        <time>2014-02-01T08:59:26Z</time>
      </trkpt>
      <trkpt lat="43.76278" lon="6.9876">
        <ele>521.8</ele>
        <time>2014-02-01T08:59:30Z</time>
      </trkpt>
      <trkpt lat="43.76271" lon="6.9877">
        <ele>522.1</ele>
        <time>2014-02-01T08:59:33Z</time>
      </trkpt>
      <trkpt lat="43.76264" lon="6.98781">
        <ele>521</ele>
        <time>2014-02-01T08:59:36Z</time>
      </trkpt>
      <trkpt lat="43.76256" lon="6.9879">
        <ele>520.4</ele>
        <time>2014-02-01T08:59:40Z</time>
      </trkpt>
      <trkpt lat="43.76248" lon="6.98797">
        <ele>521</ele>
        <time>2014-02-01T08:59:44Z</time>
      </trkpt>
      <trkpt lat="43.76238" lon="6.98803">
        <ele>522.1</ele>
        <time>2014-02-01T08:59:50Z</time>
      </trkpt>
      <trkpt lat="43.76229" lon="6.98809">
        <ele>523</ele>
        <time>2014-02-01T08:59:57Z</time>
      </trkpt>
      <trkpt lat="43.76221" lon="6.98816">
        <ele>524.2</ele>
        <time>2014-02-01T09:00:06Z</time>
      </trkpt>
      <trkpt lat="43.76214" lon="6.98825">
        <ele>526.5</ele>
        <time>2014-02-01T09:00:14Z</time>
      </trkpt>
      <trkpt lat="43.76208" lon="6.98837">
        <ele>526</ele>
        <time>2014-02-01T09:00:22Z</time>
      </trkpt>
      <trkpt lat="43.76204" lon="6.98849">
        <ele>529.2</ele>
        <time>2014-02-01T09:00:31Z</time>
      </trkpt>
      <trkpt lat="43.76201" lon="6.98862">
        <ele>530.1</ele>
        <time>2014-02-01T09:00:40Z</time>
      </trkpt>
      <trkpt lat="43.76196" lon="6.98874">
        <ele>531.2</ele>
        <time>2014-02-01T09:00:48Z</time>
      </trkpt>
      <trkpt lat="43.76193" lon="6.98887">
        <ele>533.6</ele>
        <time>2014-02-01T09:00:57Z</time>
      </trkpt>
      <trkpt lat="43.76192" lon="6.989">
        <ele>533.5</ele>
        <time>2014-02-01T09:01:04Z</time>
      </trkpt>
      <trkpt lat="43.76193" lon="6.98913">
        <ele>535.1</ele>
        <time>2014-02-01T09:01:11Z</time>
      </trkpt>
      <trkpt lat="43.76196" lon="6.98927">
        <ele>535.4</ele>
        <time>2014-02-01T09:01:18Z</time>
      </trkpt>
      <trkpt lat="43.76202" lon="6.98938">
        <ele>537.9</ele>
        <time>2014-02-01T09:01:25Z</time>
      </trkpt>
      <trkpt lat="43.76207" lon="6.98948">
        <ele>538.6</ele>
        <time>2014-02-01T09:01:32Z</time>
      </trkpt>
      <trkpt lat="43.76213" lon="6.98958">
        <ele>540.1</ele>
        <time>2014-02-01T09:01:39Z</time>
      </trkpt>
      <trkpt lat="43.76219" lon="6.98969">
        <ele>542.7</ele>
        <time>2014-02-01T09:01:47Z</time>
      </trkpt>
      <trkpt lat="43.76224" lon="6.9898">
        <ele>543.4</ele>
        <time>2014-02-01T09:01:55Z</time>
      </trkpt>
      <trkpt lat="43.76229" lon="6.98993">
        <ele>543.5</ele>
        <time>2014-02-01T09:02:03Z</time>
      </trkpt>
      <trkpt lat="43.76232" lon="6.99005">
        <ele>546</ele>
        <time>2014-02-01T09:02:10Z</time>
      </trkpt>
      <trkpt lat="43.76235" lon="6.99018">
        <ele>547.4</ele>
        <time>2014-02-01T09:02:17Z</time>
      </trkpt>
      <trkpt lat="43.76235" lon="6.99032">
        <ele>550</ele>
        <time>2014-02-01T09:02:24Z</time>
      </trkpt>
      <trkpt lat="43.76235" lon="6.99045">
        <ele>550.6</ele>
        <time>2014-02-01T09:02:31Z</time>
      </trkpt>
      <trkpt lat="43.76232" lon="6.99057">
        <ele>550.1</ele>
        <time>2014-02-01T09:02:37Z</time>
      </trkpt>
      <trkpt lat="43.76222" lon="6.9908">
        <ele>552.8</ele>
        <time>2014-02-01T09:02:52Z</time>
      </trkpt>
      <trkpt lat="43.76218" lon="6.99092">
        <ele>555.2</ele>
        <time>2014-02-01T09:03:00Z</time>
      </trkpt>
      <trkpt lat="43.76214" lon="6.99104">
        <ele>554.9</ele>
        <time>2014-02-01T09:03:07Z</time>
      </trkpt>
      <trkpt lat="43.76208" lon="6.99114">
        <ele>555.8</ele>
        <time>2014-02-01T09:03:15Z</time>
      </trkpt>
      <trkpt lat="43.76201" lon="6.99123">
        <ele>556.9</ele>
        <time>2014-02-01T09:03:23Z</time>
      </trkpt>
      <trkpt lat="43.76194" lon="6.99133">
        <ele>558.3</ele>
        <time>2014-02-01T09:03:32Z</time>
      </trkpt>
      <trkpt lat="43.76203" lon="6.99137">
        <ele>558.5</ele>
        <time>2014-02-01T09:03:42Z</time>
      </trkpt>
      <trkpt lat="43.76218" lon="6.9912">
        <ele>561.7</ele>
        <time>2014-02-01T09:04:24Z</time>
      </trkpt>
      <trkpt lat="43.76226" lon="6.99112">
        <ele>562.2</ele>
        <time>2014-02-01T09:04:33Z</time>
      </trkpt>
      <trkpt lat="43.76234" lon="6.99105">
        <ele>564.6</ele>
        <time>2014-02-01T09:04:42Z</time>
      </trkpt>
      <trkpt lat="43.76242" lon="6.99099">
        <ele>565.1</ele>
        <time>2014-02-01T09:04:52Z</time>
      </trkpt>
      <trkpt lat="43.76262" lon="6.99092">
        <ele>568.3</ele>
        <time>2014-02-01T09:05:10Z</time>
      </trkpt>
      <trkpt lat="43.76271" lon="6.99089">
        <ele>569.3</ele>
        <time>2014-02-01T09:05:18Z</time>
      </trkpt>
      <trkpt lat="43.7628" lon="6.99085">
        <ele>570.9</ele>
        <time>2014-02-01T09:05:26Z</time>
      </trkpt>
      <trkpt lat="43.76172" lon="6.99226">
        <ele>574.2</ele>
        <time>2014-02-01T09:07:20Z</time>
      </trkpt>
      <trkpt lat="43.7616" lon="6.99246">
        <ele>585.1</ele>
        <time>2014-02-01T09:07:35Z</time>
      </trkpt>
      <trkpt lat="43.76154" lon="6.99255">
        <ele>587.7</ele>
        <time>2014-02-01T09:07:44Z</time>
      </trkpt>
      <trkpt lat="43.76147" lon="6.99264">
        <ele>588.6</ele>
        <time>2014-02-01T09:07:51Z</time>
      </trkpt>
      <trkpt lat="43.7614" lon="6.99273">
        <ele>591.4</ele>
        <time>2014-02-01T09:07:59Z</time>
      </trkpt>
      <trkpt lat="43.76132" lon="6.99279">
        <ele>592.7</ele>
        <time>2014-02-01T09:08:06Z</time>
      </trkpt>
      <trkpt lat="43.76124" lon="6.99283">
        <ele>594.3</ele>
        <time>2014-02-01T09:08:15Z</time>
      </trkpt>
      <trkpt lat="43.76115" lon="6.99289">
        <ele>597.1</ele>
        <time>2014-02-01T09:08:23Z</time>
      </trkpt>
      <trkpt lat="43.76097" lon="6.99295">
        <ele>601.4</ele>
        <time>2014-02-01T09:08:42Z</time>
      </trkpt>
      <trkpt lat="43.76088" lon="6.99298">
        <ele>604.3</ele>
        <time>2014-02-01T09:08:59Z</time>
      </trkpt>
      <trkpt lat="43.76079" lon="6.99303">
        <ele>604.6</ele>
        <time>2014-02-01T09:09:12Z</time>
      </trkpt>
      <trkpt lat="43.7607" lon="6.99306">
        <ele>606.7</ele>
        <time>2014-02-01T09:09:24Z</time>
      </trkpt>
      <trkpt lat="43.76052" lon="6.99312">
        <ele>611</ele>
        <time>2014-02-01T09:09:49Z</time>
      </trkpt>
      <trkpt lat="43.76045" lon="6.9932">
        <ele>612.2</ele>
        <time>2014-02-01T09:10:02Z</time>
      </trkpt>
      <trkpt lat="43.76037" lon="6.99327">
        <ele>614.6</ele>
        <time>2014-02-01T09:10:15Z</time>
      </trkpt>
      <trkpt lat="43.76028" lon="6.99332">
        <ele>617</ele>
        <time>2014-02-01T09:10:28Z</time>
      </trkpt>
      <trkpt lat="43.76011" lon="6.99339">
        <ele>620.1</ele>
        <time>2014-02-01T09:11:19Z</time>
      </trkpt>
      <trkpt lat="43.76002" lon="6.99345">
        <ele>620.5</ele>
        <time>2014-02-01T09:11:56Z</time>
      </trkpt>
      <trkpt lat="43.75984" lon="6.99341">
        <ele>621.9</ele>
        <time>2014-02-01T09:12:16Z</time>
      </trkpt>
      <trkpt lat="43.75974" lon="6.99343">
        <ele>624</ele>
        <time>2014-02-01T09:12:26Z</time>
      </trkpt>
      <trkpt lat="43.75966" lon="6.99349">
        <ele>624.3</ele>
        <time>2014-02-01T09:12:34Z</time>
      </trkpt>
      <trkpt lat="43.75959" lon="6.99359">
        <ele>623.6</ele>
        <time>2014-02-01T09:12:40Z</time>
      </trkpt>
      <trkpt lat="43.7595" lon="6.99367">
        <ele>622.8</ele>
        <time>2014-02-01T09:12:46Z</time>
      </trkpt>
      <trkpt lat="43.75941" lon="6.99373">
        <ele>621.9</ele>
        <time>2014-02-01T09:12:51Z</time>
      </trkpt>
      <trkpt lat="43.75933" lon="6.99377">
        <ele>621.9</ele>
        <time>2014-02-01T09:12:56Z</time>
      </trkpt>
      <trkpt lat="43.75923" lon="6.99376">
        <ele>621.9</ele>
        <time>2014-02-01T09:13:02Z</time>
      </trkpt>
      <trkpt lat="43.75906" lon="6.99365">
        <ele>622.6</ele>
        <time>2014-02-01T09:13:15Z</time>
      </trkpt>
      <trkpt lat="43.75898" lon="6.99358">
        <ele>624</ele>
        <time>2014-02-01T09:13:22Z</time>
      </trkpt>
      <trkpt lat="43.7589" lon="6.9935">
        <ele>625.8</ele>
        <time>2014-02-01T09:13:29Z</time>
      </trkpt>
      <trkpt lat="43.75881" lon="6.99349">
        <ele>627</ele>
        <time>2014-02-01T09:13:35Z</time>
      </trkpt>
      <trkpt lat="43.75871" lon="6.99348">
        <ele>626.5</ele>
        <time>2014-02-01T09:13:39Z</time>
      </trkpt>
      <trkpt lat="43.75861" lon="6.9935">
        <ele>624.3</ele>
        <time>2014-02-01T09:13:43Z</time>
      </trkpt>
      <trkpt lat="43.7585" lon="6.99354">
        <ele>623.9</ele>
        <time>2014-02-01T09:13:47Z</time>
      </trkpt>
      <trkpt lat="43.75838" lon="6.99358">
        <ele>622.3</ele>
        <time>2014-02-01T09:13:51Z</time>
      </trkpt>
      <trkpt lat="43.75828" lon="6.99361">
        <ele>623.8</ele>
        <time>2014-02-01T09:13:55Z</time>
      </trkpt>
      <trkpt lat="43.75817" lon="6.99365">
        <ele>622.1</ele>
        <time>2014-02-01T09:13:59Z</time>
      </trkpt>
      <trkpt lat="43.75808" lon="6.99367">
        <ele>621.5</ele>
        <time>2014-02-01T09:14:02Z</time>
      </trkpt>
      <trkpt lat="43.75796" lon="6.99368">
        <ele>620.7</ele>
        <time>2014-02-01T09:14:05Z</time>
      </trkpt>
      <trkpt lat="43.75773" lon="6.99368">
        <ele>620.7</ele>
        <time>2014-02-01T09:14:11Z</time>
      </trkpt>
      <trkpt lat="43.75764" lon="6.9937">
        <ele>619.7</ele>
        <time>2014-02-01T09:14:15Z</time>
      </trkpt>
      <trkpt lat="43.75755" lon="6.99374">
        <ele>618.9</ele>
        <time>2014-02-01T09:14:19Z</time>
      </trkpt>
      <trkpt lat="43.75745" lon="6.99381">
        <ele>619.2</ele>
        <time>2014-02-01T09:14:24Z</time>
      </trkpt>
      <trkpt lat="43.75738" lon="6.9939">
        <ele>619.7</ele>
        <time>2014-02-01T09:14:30Z</time>
      </trkpt>
      <trkpt lat="43.75731" lon="6.994">
        <ele>621</ele>
        <time>2014-02-01T09:14:37Z</time>
      </trkpt>
      <trkpt lat="43.75725" lon="6.9941">
        <ele>621.7</ele>
        <time>2014-02-01T09:14:43Z</time>
      </trkpt>
      <trkpt lat="43.75718" lon="6.99419">
        <ele>620.4</ele>
        <time>2014-02-01T09:14:49Z</time>
      </trkpt>
      <trkpt lat="43.75711" lon="6.99429">
        <ele>621.6</ele>
        <time>2014-02-01T09:14:55Z</time>
      </trkpt>
      <trkpt lat="43.75704" lon="6.99439">
        <ele>621.6</ele>
        <time>2014-02-01T09:15:01Z</time>
      </trkpt>
      <trkpt lat="43.75697" lon="6.99449">
        <ele>622.3</ele>
        <time>2014-02-01T09:15:07Z</time>
      </trkpt>
      <trkpt lat="43.75681" lon="6.99467">
        <ele>621.5</ele>
        <time>2014-02-01T09:15:16Z</time>
      </trkpt>
      <trkpt lat="43.75673" lon="6.99476">
        <ele>620.3</ele>
        <time>2014-02-01T09:15:20Z</time>
      </trkpt>
      <trkpt lat="43.75663" lon="6.99484">
        <ele>619</ele>
        <time>2014-02-01T09:15:24Z</time>
      </trkpt>
      <trkpt lat="43.75655" lon="6.99492">
        <ele>617.8</ele>
        <time>2014-02-01T09:15:27Z</time>
      </trkpt>
      <trkpt lat="43.75648" lon="6.99503">
        <ele>617.3</ele>
        <time>2014-02-01T09:15:30Z</time>
      </trkpt>
      <trkpt lat="43.75644" lon="6.99519">
        <ele>615.1</ele>
        <time>2014-02-01T09:15:33Z</time>
      </trkpt>
      <trkpt lat="43.7564" lon="6.99531">
        <ele>614.5</ele>
        <time>2014-02-01T09:15:35Z</time>
      </trkpt>
      <trkpt lat="43.75636" lon="6.99544">
        <ele>614.3</ele>
        <time>2014-02-01T09:15:37Z</time>
      </trkpt>
      <trkpt lat="43.75631" lon="6.99555">
        <ele>613.4</ele>
        <time>2014-02-01T09:15:39Z</time>
      </trkpt>
      <trkpt lat="43.75624" lon="6.99568">
        <ele>611.4</ele>
        <time>2014-02-01T09:15:42Z</time>
      </trkpt>
      <trkpt lat="43.75616" lon="6.9958">
        <ele>610.5</ele>
        <time>2014-02-01T09:15:45Z</time>
      </trkpt>
      <trkpt lat="43.75608" lon="6.9959">
        <ele>610.5</ele>
        <time>2014-02-01T09:15:48Z</time>
      </trkpt>
      <trkpt lat="43.756" lon="6.99598">
        <ele>609</ele>
        <time>2014-02-01T09:16:00Z</time>
      </trkpt>
      <trkpt lat="43.75592" lon="6.99607">
        <ele>608.4</ele>
        <time>2014-02-01T09:16:20Z</time>
      </trkpt>
      <trkpt lat="43.75577" lon="6.99621">
        <ele>608.1</ele>
        <time>2014-02-01T09:16:32Z</time>
      </trkpt>
      <trkpt lat="43.75569" lon="6.99629">
        <ele>609.5</ele>
        <time>2014-02-01T09:16:39Z</time>
      </trkpt>
      <trkpt lat="43.75562" lon="6.99638">
        <ele>610.3</ele>
        <time>2014-02-01T09:16:46Z</time>
      </trkpt>
      <trkpt lat="43.75557" lon="6.99648">
        <ele>611.1</ele>
        <time>2014-02-01T09:16:54Z</time>
      </trkpt>
      <trkpt lat="43.75552" lon="6.99661">
        <ele>611.8</ele>
        <time>2014-02-01T09:17:01Z</time>
      </trkpt>
      <trkpt lat="43.7555" lon="6.99676">
        <ele>610.7</ele>
        <time>2014-02-01T09:17:06Z</time>
      </trkpt>
      <trkpt lat="43.75551" lon="6.99689">
        <ele>611.6</ele>
        <time>2014-02-01T09:17:10Z</time>
      </trkpt>
      <trkpt lat="43.75554" lon="6.99705">
        <ele>611.2</ele>
        <time>2014-02-01T09:17:14Z</time>
      </trkpt>
      <trkpt lat="43.75556" lon="6.99718">
        <ele>610.4</ele>
        <time>2014-02-01T09:17:17Z</time>
      </trkpt>
      <trkpt lat="43.75557" lon="6.99733">
        <ele>609</ele>
        <time>2014-02-01T09:17:20Z</time>
      </trkpt>
      <trkpt lat="43.75556" lon="6.9975">
        <ele>607.9</ele>
        <time>2014-02-01T09:17:23Z</time>
      </trkpt>
      <trkpt lat="43.75554" lon="6.99783">
        <ele>606.7</ele>
        <time>2014-02-01T09:17:29Z</time>
      </trkpt>
      <trkpt lat="43.75551" lon="6.99801">
        <ele>605.8</ele>
        <time>2014-02-01T09:17:32Z</time>
      </trkpt>
      <trkpt lat="43.75548" lon="6.99815">
        <ele>604.6</ele>
        <time>2014-02-01T09:17:34Z</time>
      </trkpt>
      <trkpt lat="43.75545" lon="6.99828">
        <ele>603.9</ele>
        <time>2014-02-01T09:17:36Z</time>
      </trkpt>
      <trkpt lat="43.7554" lon="6.9984">
        <ele>603.5</ele>
        <time>2014-02-01T09:17:38Z</time>
      </trkpt>
      <trkpt lat="43.75535" lon="6.99851">
        <ele>602.2</ele>
        <time>2014-02-01T09:17:40Z</time>
      </trkpt>
      <trkpt lat="43.75525" lon="6.99861">
        <ele>601</ele>
        <time>2014-02-01T09:17:43Z</time>
      </trkpt>
      <trkpt lat="43.75515" lon="6.99866">
        <ele>600.6</ele>
        <time>2014-02-01T09:17:47Z</time>
      </trkpt>
      <trkpt lat="43.75507" lon="6.99872">
        <ele>600.2</ele>
        <time>2014-02-01T09:17:51Z</time>
      </trkpt>
      <trkpt lat="43.75499" lon="6.99882">
        <ele>602.3</ele>
        <time>2014-02-01T09:17:57Z</time>
      </trkpt>
      <trkpt lat="43.75492" lon="6.99893">
        <ele>604.3</ele>
        <time>2014-02-01T09:18:03Z</time>
      </trkpt>
      <trkpt lat="43.75484" lon="6.999">
        <ele>604.8</ele>
        <time>2014-02-01T09:18:10Z</time>
      </trkpt>
      <trkpt lat="43.75476" lon="6.99907">
        <ele>606.9</ele>
        <time>2014-02-01T09:18:16Z</time>
      </trkpt>
      <trkpt lat="43.75469" lon="6.99913">
        <ele>609.2</ele>
        <time>2014-02-01T09:18:22Z</time>
      </trkpt>
      <trkpt lat="43.7546" lon="6.99918">
        <ele>610.5</ele>
        <time>2014-02-01T09:18:28Z</time>
      </trkpt>
      <trkpt lat="43.75444" lon="6.99932">
        <ele>610.4</ele>
        <time>2014-02-01T09:18:37Z</time>
      </trkpt>
      <trkpt lat="43.75437" lon="6.9994">
        <ele>610</ele>
        <time>2014-02-01T09:18:40Z</time>
      </trkpt>
      <trkpt lat="43.75431" lon="6.99951">
        <ele>609.2</ele>
        <time>2014-02-01T09:18:43Z</time>
      </trkpt>
      <trkpt lat="43.75425" lon="6.99967">
        <ele>608.5</ele>
        <time>2014-02-01T09:18:46Z</time>
      </trkpt>
      <trkpt lat="43.75421" lon="6.99978">
        <ele>607.8</ele>
        <time>2014-02-01T09:18:48Z</time>
      </trkpt>
      <trkpt lat="43.75415" lon="6.99989">
        <ele>607.8</ele>
        <time>2014-02-01T09:18:50Z</time>
      </trkpt>
      <trkpt lat="43.75407" lon="6.99994">
        <ele>607</ele>
        <time>2014-02-01T09:18:52Z</time>
      </trkpt>
      <trkpt lat="43.75397" lon="6.99995">
        <ele>606</ele>
        <time>2014-02-01T09:18:54Z</time>
      </trkpt>
      <trkpt lat="43.75388" lon="6.99995">
        <ele>605</ele>
        <time>2014-02-01T09:18:56Z</time>
      </trkpt>
      <trkpt lat="43.75378" lon="6.99994">
        <ele>604</ele>
        <time>2014-02-01T09:18:58Z</time>
      </trkpt>
      <trkpt lat="43.75368" lon="6.99993">
        <ele>600.5</ele>
        <time>2014-02-01T09:19:01Z</time>
      </trkpt>
      <trkpt lat="43.75376" lon="7.00003">
        <ele>595.2</ele>
        <time>2014-02-01T09:19:10Z</time>
      </trkpt>
      <trkpt lat="43.75384" lon="7.0001">
        <ele>594.9</ele>
        <time>2014-02-01T09:19:16Z</time>
      </trkpt>
      <trkpt lat="43.75391" lon="7.00021">
        <ele>595.9</ele>
        <time>2014-02-01T09:19:21Z</time>
      </trkpt>
      <trkpt lat="43.75396" lon="7.00033">
        <ele>597.5</ele>
        <time>2014-02-01T09:19:26Z</time>
      </trkpt>
      <trkpt lat="43.75397" lon="7.00048">
        <ele>598.3</ele>
        <time>2014-02-01T09:19:31Z</time>
      </trkpt>
      <trkpt lat="43.75395" lon="7.00077">
        <ele>598.3</ele>
        <time>2014-02-01T09:19:41Z</time>
      </trkpt>
      <trkpt lat="43.75394" lon="7.0009">
        <ele>600.6</ele>
        <time>2014-02-01T09:19:46Z</time>
      </trkpt>
      <trkpt lat="43.75393" lon="7.00105">
        <ele>600</ele>
        <time>2014-02-01T09:19:51Z</time>
      </trkpt>
      <trkpt lat="43.75392" lon="7.0012">
        <ele>599.5</ele>
        <time>2014-02-01T09:19:56Z</time>
      </trkpt>
      <trkpt lat="43.75392" lon="7.00135">
        <ele>602.1</ele>
        <time>2014-02-01T09:20:01Z</time>
      </trkpt>
      <trkpt lat="43.75394" lon="7.0015">
        <ele>602.1</ele>
        <time>2014-02-01T09:20:06Z</time>
      </trkpt>
      <trkpt lat="43.75398" lon="7.00164">
        <ele>602.8</ele>
        <time>2014-02-01T09:20:11Z</time>
      </trkpt>
      <trkpt lat="43.75403" lon="7.00178">
        <ele>602.7</ele>
        <time>2014-02-01T09:20:16Z</time>
      </trkpt>
      <trkpt lat="43.75408" lon="7.00189">
        <ele>603.3</ele>
        <time>2014-02-01T09:20:20Z</time>
      </trkpt>
      <trkpt lat="43.75415" lon="7.002">
        <ele>603.8</ele>
        <time>2014-02-01T09:20:25Z</time>
      </trkpt>
      <trkpt lat="43.75422" lon="7.00211">
        <ele>604.8</ele>
        <time>2014-02-01T09:20:30Z</time>
      </trkpt>
      <trkpt lat="43.75428" lon="7.00223">
        <ele>605.1</ele>
        <time>2014-02-01T09:20:35Z</time>
      </trkpt>
      <trkpt lat="43.75439" lon="7.00249">
        <ele>606.2</ele>
        <time>2014-02-01T09:20:45Z</time>
      </trkpt>
      <trkpt lat="43.75441" lon="7.00263">
        <ele>606.9</ele>
        <time>2014-02-01T09:20:50Z</time>
      </trkpt>
      <trkpt lat="43.75439" lon="7.00278">
        <ele>607.1</ele>
        <time>2014-02-01T09:20:55Z</time>
      </trkpt>
      <trkpt lat="43.75435" lon="7.00292">
        <ele>606.7</ele>
        <time>2014-02-01T09:21:00Z</time>
      </trkpt>
      <trkpt lat="43.75429" lon="7.00303">
        <ele>608.2</ele>
        <time>2014-02-01T09:21:05Z</time>
      </trkpt>
      <trkpt lat="43.75422" lon="7.00315">
        <ele>609.5</ele>
        <time>2014-02-01T09:21:10Z</time>
      </trkpt>
      <trkpt lat="43.75417" lon="7.00327">
        <ele>610</ele>
        <time>2014-02-01T09:21:15Z</time>
      </trkpt>
      <trkpt lat="43.75411" lon="7.00339">
        <ele>609.3</ele>
        <time>2014-02-01T09:21:20Z</time>
      </trkpt>
      <trkpt lat="43.75406" lon="7.00351">
        <ele>609.7</ele>
        <time>2014-02-01T09:21:25Z</time>
      </trkpt>
      <trkpt lat="43.75401" lon="7.00362">
        <ele>612.1</ele>
        <time>2014-02-01T09:21:30Z</time>
      </trkpt>
      <trkpt lat="43.75396" lon="7.00373">
        <ele>611.4</ele>
        <time>2014-02-01T09:21:35Z</time>
      </trkpt>
      <trkpt lat="43.75392" lon="7.00384">
        <ele>611.5</ele>
        <time>2014-02-01T09:21:40Z</time>
      </trkpt>
      <trkpt lat="43.75382" lon="7.00408">
        <ele>613.2</ele>
        <time>2014-02-01T09:21:50Z</time>
      </trkpt>
      <trkpt lat="43.75376" lon="7.00419">
        <ele>613.2</ele>
        <time>2014-02-01T09:21:55Z</time>
      </trkpt>
      <trkpt lat="43.7537" lon="7.00431">
        <ele>613.5</ele>
        <time>2014-02-01T09:22:00Z</time>
      </trkpt>
      <trkpt lat="43.75364" lon="7.00442">
        <ele>614.1</ele>
        <time>2014-02-01T09:22:05Z</time>
      </trkpt>
      <trkpt lat="43.75358" lon="7.00453">
        <ele>614.5</ele>
        <time>2014-02-01T09:22:10Z</time>
      </trkpt>
      <trkpt lat="43.75349" lon="7.00472">
        <ele>615</ele>
        <time>2014-02-01T09:22:18Z</time>
      </trkpt>
      <trkpt lat="43.75339" lon="7.0049">
        <ele>617</ele>
        <time>2014-02-01T09:22:26Z</time>
      </trkpt>
      <trkpt lat="43.75329" lon="7.00507">
        <ele>616</ele>
        <time>2014-02-01T09:22:34Z</time>
      </trkpt>
      <trkpt lat="43.75319" lon="7.00522">
        <ele>617</ele>
        <time>2014-02-01T09:22:42Z</time>
      </trkpt>
      <trkpt lat="43.75297" lon="7.00557">
        <ele>619</ele>
        <time>2014-02-01T09:22:58Z</time>
      </trkpt>
      <trkpt lat="43.75286" lon="7.00569">
        <ele>620</ele>
        <time>2014-02-01T09:23:06Z</time>
      </trkpt>
      <trkpt lat="43.75277" lon="7.00576">
        <ele>621.3</ele>
        <time>2014-02-01T09:23:13Z</time>
      </trkpt>
      <trkpt lat="43.75269" lon="7.00582">
        <ele>622.5</ele>
        <time>2014-02-01T09:23:18Z</time>
      </trkpt>
      <trkpt lat="43.75261" lon="7.00588">
        <ele>623</ele>
        <time>2014-02-01T09:23:23Z</time>
      </trkpt>
      <trkpt lat="43.75251" lon="7.00595">
        <ele>621.4</ele>
        <time>2014-02-01T09:23:29Z</time>
      </trkpt>
      <trkpt lat="43.75243" lon="7.00601">
        <ele>622.4</ele>
        <time>2014-02-01T09:23:34Z</time>
      </trkpt>
      <trkpt lat="43.75235" lon="7.00607">
        <ele>623.7</ele>
        <time>2014-02-01T09:23:39Z</time>
      </trkpt>
      <trkpt lat="43.75226" lon="7.00612">
        <ele>624.8</ele>
        <time>2014-02-01T09:23:44Z</time>
      </trkpt>
      <trkpt lat="43.75218" lon="7.00618">
        <ele>625</ele>
        <time>2014-02-01T09:23:49Z</time>
      </trkpt>
      <trkpt lat="43.752" lon="7.00629">
        <ele>626.5</ele>
        <time>2014-02-01T09:23:59Z</time>
      </trkpt>
      <trkpt lat="43.75191" lon="7.00635">
        <ele>626.8</ele>
        <time>2014-02-01T09:24:04Z</time>
      </trkpt>
      <trkpt lat="43.75182" lon="7.0064">
        <ele>626.1</ele>
        <time>2014-02-01T09:24:09Z</time>
      </trkpt>
      <trkpt lat="43.75173" lon="7.00645">
        <ele>627.1</ele>
        <time>2014-02-01T09:24:14Z</time>
      </trkpt>
      <trkpt lat="43.75164" lon="7.0065">
        <ele>627.4</ele>
        <time>2014-02-01T09:24:19Z</time>
      </trkpt>
      <trkpt lat="43.75155" lon="7.00655">
        <ele>628</ele>
        <time>2014-02-01T09:24:24Z</time>
      </trkpt>
      <trkpt lat="43.75145" lon="7.0066">
        <ele>627</ele>
        <time>2014-02-01T09:24:29Z</time>
      </trkpt>
      <trkpt lat="43.75136" lon="7.00665">
        <ele>629.8</ele>
        <time>2014-02-01T09:24:34Z</time>
      </trkpt>
      <trkpt lat="43.75127" lon="7.0067">
        <ele>629.8</ele>
        <time>2014-02-01T09:24:39Z</time>
      </trkpt>
      <trkpt lat="43.75118" lon="7.00675">
        <ele>630.1</ele>
        <time>2014-02-01T09:24:44Z</time>
      </trkpt>
      <trkpt lat="43.75108" lon="7.00679">
        <ele>629.9</ele>
        <time>2014-02-01T09:24:49Z</time>
      </trkpt>
      <trkpt lat="43.75098" lon="7.00683">
        <ele>630.6</ele>
        <time>2014-02-01T09:24:54Z</time>
      </trkpt>
      <trkpt lat="43.75077" lon="7.00688">
        <ele>632.8</ele>
        <time>2014-02-01T09:25:04Z</time>
      </trkpt>
      <trkpt lat="43.75067" lon="7.0069">
        <ele>632.3</ele>
        <time>2014-02-01T09:25:09Z</time>
      </trkpt>
      <trkpt lat="43.75058" lon="7.00692">
        <ele>632.7</ele>
        <time>2014-02-01T09:25:14Z</time>
      </trkpt>
      <trkpt lat="43.75048" lon="7.00695">
        <ele>633.7</ele>
        <time>2014-02-01T09:25:20Z</time>
      </trkpt>
      <trkpt lat="43.75038" lon="7.00697">
        <ele>634</ele>
        <time>2014-02-01T09:25:25Z</time>
      </trkpt>
      <trkpt lat="43.75029" lon="7.007">
        <ele>634.4</ele>
        <time>2014-02-01T09:25:30Z</time>
      </trkpt>
      <trkpt lat="43.75019" lon="7.00702">
        <ele>635.4</ele>
        <time>2014-02-01T09:25:35Z</time>
      </trkpt>
      <trkpt lat="43.75009" lon="7.00704">
        <ele>634.6</ele>
        <time>2014-02-01T09:25:40Z</time>
      </trkpt>
      <trkpt lat="43.74999" lon="7.00706">
        <ele>634.2</ele>
        <time>2014-02-01T09:25:45Z</time>
      </trkpt>
      <trkpt lat="43.74989" lon="7.00707">
        <ele>636.2</ele>
        <time>2014-02-01T09:25:50Z</time>
      </trkpt>
      <trkpt lat="43.74979" lon="7.00707">
        <ele>637.3</ele>
        <time>2014-02-01T09:25:55Z</time>
      </trkpt>
      <trkpt lat="43.7496" lon="7.00703">
        <ele>638.1</ele>
        <time>2014-02-01T09:26:05Z</time>
      </trkpt>
      <trkpt lat="43.7495" lon="7.00701">
        <ele>638.1</ele>
        <time>2014-02-01T09:26:10Z</time>
      </trkpt>
      <trkpt lat="43.7494" lon="7.00703">
        <ele>638.8</ele>
        <time>2014-02-01T09:26:15Z</time>
      </trkpt>
      <trkpt lat="43.74931" lon="7.00709">
        <ele>640.2</ele>
        <time>2014-02-01T09:26:20Z</time>
      </trkpt>
      <trkpt lat="43.74922" lon="7.00714">
        <ele>639.4</ele>
        <time>2014-02-01T09:26:25Z</time>
      </trkpt>
      <trkpt lat="43.74913" lon="7.00719">
        <ele>640.9</ele>
        <time>2014-02-01T09:26:30Z</time>
      </trkpt>
      <trkpt lat="43.74903" lon="7.00722">
        <ele>641.1</ele>
        <time>2014-02-01T09:26:35Z</time>
      </trkpt>
      <trkpt lat="43.74893" lon="7.00722">
        <ele>641.6</ele>
        <time>2014-02-01T09:26:40Z</time>
      </trkpt>
      <trkpt lat="43.74883" lon="7.00722">
        <ele>642</ele>
        <time>2014-02-01T09:26:45Z</time>
      </trkpt>
      <trkpt lat="43.74874" lon="7.00729">
        <ele>643.3</ele>
        <time>2014-02-01T09:26:50Z</time>
      </trkpt>
      <trkpt lat="43.74868" lon="7.00741">
        <ele>643.5</ele>
        <time>2014-02-01T09:26:55Z</time>
      </trkpt>
      <trkpt lat="43.74861" lon="7.00751">
        <ele>643.9</ele>
        <time>2014-02-01T09:27:00Z</time>
      </trkpt>
      <trkpt lat="43.74857" lon="7.00776">
        <ele>644.8</ele>
        <time>2014-02-01T09:27:10Z</time>
      </trkpt>
      <trkpt lat="43.74861" lon="7.00791">
        <ele>644.5</ele>
        <time>2014-02-01T09:27:15Z</time>
      </trkpt>
      <trkpt lat="43.74861" lon="7.00805">
        <ele>644.8</ele>
        <time>2014-02-01T09:27:20Z</time>
      </trkpt>
      <trkpt lat="43.74853" lon="7.00816">
        <ele>645.3</ele>
        <time>2014-02-01T09:27:25Z</time>
      </trkpt>
      <trkpt lat="43.74843" lon="7.00819">
        <ele>645.3</ele>
        <time>2014-02-01T09:27:30Z</time>
      </trkpt>
      <trkpt lat="43.74834" lon="7.00824">
        <ele>645.5</ele>
        <time>2014-02-01T09:27:35Z</time>
      </trkpt>
      <trkpt lat="43.74823" lon="7.00828">
        <ele>646.1</ele>
        <time>2014-02-01T09:27:40Z</time>
      </trkpt>
      <trkpt lat="43.74812" lon="7.00831">
        <ele>646.2</ele>
        <time>2014-02-01T09:27:45Z</time>
      </trkpt>
      <trkpt lat="43.74802" lon="7.0083">
        <ele>647.2</ele>
        <time>2014-02-01T09:27:50Z</time>
      </trkpt>
      <trkpt lat="43.74792" lon="7.00826">
        <ele>648.4</ele>
        <time>2014-02-01T09:27:55Z</time>
      </trkpt>
      <trkpt lat="43.74777" lon="7.00819">
        <ele>648</ele>
        <time>2014-02-01T09:28:02Z</time>
      </trkpt>
      <trkpt lat="43.74758" lon="7.00822">
        <ele>649.1</ele>
        <time>2014-02-01T09:28:12Z</time>
      </trkpt>
      <trkpt lat="43.74749" lon="7.0083">
        <ele>650.4</ele>
        <time>2014-02-01T09:28:18Z</time>
      </trkpt>
      <trkpt lat="43.74741" lon="7.00837">
        <ele>650.7</ele>
        <time>2014-02-01T09:28:23Z</time>
      </trkpt>
      <trkpt lat="43.74733" lon="7.00844">
        <ele>650.8</ele>
        <time>2014-02-01T09:28:28Z</time>
      </trkpt>
      <trkpt lat="43.74725" lon="7.00852">
        <ele>651.8</ele>
        <time>2014-02-01T09:28:33Z</time>
      </trkpt>
      <trkpt lat="43.74717" lon="7.00859">
        <ele>651.3</ele>
        <time>2014-02-01T09:28:38Z</time>
      </trkpt>
      <trkpt lat="43.74709" lon="7.00866">
        <ele>652.4</ele>
        <time>2014-02-01T09:28:43Z</time>
      </trkpt>
      <trkpt lat="43.74701" lon="7.00873">
        <ele>652.7</ele>
        <time>2014-02-01T09:28:48Z</time>
      </trkpt>
      <trkpt lat="43.74693" lon="7.0088">
        <ele>652.1</ele>
        <time>2014-02-01T09:28:53Z</time>
      </trkpt>
      <trkpt lat="43.74686" lon="7.00888">
        <ele>653.3</ele>
        <time>2014-02-01T09:28:58Z</time>
      </trkpt>
      <trkpt lat="43.74679" lon="7.00896">
        <ele>654.3</ele>
        <time>2014-02-01T09:29:03Z</time>
      </trkpt>
      <trkpt lat="43.74672" lon="7.00906">
        <ele>655.3</ele>
        <time>2014-02-01T09:29:08Z</time>
      </trkpt>
      <trkpt lat="43.74657" lon="7.00922">
        <ele>656.2</ele>
        <time>2014-02-01T09:29:18Z</time>
      </trkpt>
      <trkpt lat="43.74649" lon="7.00928">
        <ele>656.5</ele>
        <time>2014-02-01T09:29:23Z</time>
      </trkpt>
      <trkpt lat="43.7464" lon="7.00933">
        <ele>657.8</ele>
        <time>2014-02-01T09:29:28Z</time>
      </trkpt>
      <trkpt lat="43.74632" lon="7.00938">
        <ele>658</ele>
        <time>2014-02-01T09:29:33Z</time>
      </trkpt>
      <trkpt lat="43.74623" lon="7.00944">
        <ele>658.1</ele>
        <time>2014-02-01T09:29:38Z</time>
      </trkpt>
      <trkpt lat="43.74615" lon="7.00948">
        <ele>659.1</ele>
        <time>2014-02-01T09:29:43Z</time>
      </trkpt>
      <trkpt lat="43.74606" lon="7.00952">
        <ele>660.6</ele>
        <time>2014-02-01T09:29:48Z</time>
      </trkpt>
      <trkpt lat="43.74597" lon="7.00957">
        <ele>660.5</ele>
        <time>2014-02-01T09:29:53Z</time>
      </trkpt>
      <trkpt lat="43.74587" lon="7.00957">
        <ele>659.9</ele>
        <time>2014-02-01T09:29:58Z</time>
      </trkpt>
      <trkpt lat="43.74577" lon="7.00956">
        <ele>661.3</ele>
        <time>2014-02-01T09:30:03Z</time>
      </trkpt>
      <trkpt lat="43.74568" lon="7.00955">
        <ele>661.9</ele>
        <time>2014-02-01T09:30:08Z</time>
      </trkpt>
      <trkpt lat="43.74559" lon="7.00951">
        <ele>661.8</ele>
        <time>2014-02-01T09:30:13Z</time>
      </trkpt>
      <trkpt lat="43.74541" lon="7.00939">
        <ele>663.4</ele>
        <time>2014-02-01T09:30:23Z</time>
      </trkpt>
      <trkpt lat="43.74534" lon="7.00931">
        <ele>663.5</ele>
        <time>2014-02-01T09:30:28Z</time>
      </trkpt>
      <trkpt lat="43.74526" lon="7.00925">
        <ele>664.8</ele>
        <time>2014-02-01T09:30:33Z</time>
      </trkpt>
      <trkpt lat="43.74516" lon="7.0092">
        <ele>665.9</ele>
        <time>2014-02-01T09:30:39Z</time>
      </trkpt>
      <trkpt lat="43.74506" lon="7.00918">
        <ele>666.5</ele>
        <time>2014-02-01T09:30:45Z</time>
      </trkpt>
      <trkpt lat="43.74497" lon="7.00918">
        <ele>666.5</ele>
        <time>2014-02-01T09:30:50Z</time>
      </trkpt>
      <trkpt lat="43.74487" lon="7.00917">
        <ele>666.6</ele>
        <time>2014-02-01T09:30:55Z</time>
      </trkpt>
      <trkpt lat="43.74478" lon="7.00916">
        <ele>667.6</ele>
        <time>2014-02-01T09:31:00Z</time>
      </trkpt>
      <trkpt lat="43.74469" lon="7.00916">
        <ele>667.8</ele>
        <time>2014-02-01T09:31:05Z</time>
      </trkpt>
      <trkpt lat="43.74459" lon="7.00916">
        <ele>668.3</ele>
        <time>2014-02-01T09:31:10Z</time>
      </trkpt>
      <trkpt lat="43.74449" lon="7.00915">
        <ele>668.9</ele>
        <time>2014-02-01T09:31:15Z</time>
      </trkpt>
      <trkpt lat="43.74429" lon="7.00914">
        <ele>670.4</ele>
        <time>2014-02-01T09:31:27Z</time>
      </trkpt>
      <trkpt lat="43.74419" lon="7.0091">
        <ele>670.6</ele>
        <time>2014-02-01T09:31:33Z</time>
      </trkpt>
      <trkpt lat="43.7441" lon="7.00905">
        <ele>672.2</ele>
        <time>2014-02-01T09:31:40Z</time>
      </trkpt>
      <trkpt lat="43.74401" lon="7.00899">
        <ele>673.2</ele>
        <time>2014-02-01T09:31:50Z</time>
      </trkpt>
      <trkpt lat="43.74392" lon="7.00897">
        <ele>673.6</ele>
        <time>2014-02-01T09:33:18Z</time>
      </trkpt>
      <trkpt lat="43.74386" lon="7.00913">
        <ele>675.4</ele>
        <time>2014-02-01T09:39:03Z</time>
      </trkpt>
      <trkpt lat="43.74387" lon="7.00938">
        <ele>676.7</ele>
        <time>2014-02-01T09:39:29Z</time>
      </trkpt>
      <trkpt lat="43.74382" lon="7.00949">
        <ele>677</ele>
        <time>2014-02-01T09:39:39Z</time>
      </trkpt>
      <trkpt lat="43.74374" lon="7.00956">
        <ele>679.7</ele>
        <time>2014-02-01T09:39:48Z</time>
      </trkpt>
      <trkpt lat="43.74367" lon="7.00966">
        <ele>681</ele>
        <time>2014-02-01T09:39:58Z</time>
      </trkpt>
      <trkpt lat="43.74363" lon="7.00977">
        <ele>682.8</ele>
        <time>2014-02-01T09:40:08Z</time>
      </trkpt>
      <trkpt lat="43.7435" lon="7.00996">
        <ele>686.5</ele>
        <time>2014-02-01T09:40:26Z</time>
      </trkpt>
      <trkpt lat="43.74343" lon="7.01004">
        <ele>687.7</ele>
        <time>2014-02-01T09:40:36Z</time>
      </trkpt>
      <trkpt lat="43.74335" lon="7.01012">
        <ele>690.7</ele>
        <time>2014-02-01T09:40:47Z</time>
      </trkpt>
      <trkpt lat="43.74328" lon="7.0102">
        <ele>693</ele>
        <time>2014-02-01T09:40:56Z</time>
      </trkpt>
      <trkpt lat="43.74322" lon="7.0103">
        <ele>694.5</ele>
        <time>2014-02-01T09:41:06Z</time>
      </trkpt>
      <trkpt lat="43.74315" lon="7.01039">
        <ele>697.3</ele>
        <time>2014-02-01T09:41:16Z</time>
      </trkpt>
      <trkpt lat="43.743" lon="7.01056">
        <ele>701.8</ele>
        <time>2014-02-01T09:41:36Z</time>
      </trkpt>
      <trkpt lat="43.74295" lon="7.01067">
        <ele>703.9</ele>
        <time>2014-02-01T09:41:46Z</time>
      </trkpt>
      <trkpt lat="43.74289" lon="7.01078">
        <ele>705.7</ele>
        <time>2014-02-01T09:41:55Z</time>
      </trkpt>
      <trkpt lat="43.74284" lon="7.01088">
        <ele>707.7</ele>
        <time>2014-02-01T09:42:04Z</time>
      </trkpt>
      <trkpt lat="43.74277" lon="7.01097">
        <ele>708.6</ele>
        <time>2014-02-01T09:42:13Z</time>
      </trkpt>
      <trkpt lat="43.74271" lon="7.01106">
        <ele>709.1</ele>
        <time>2014-02-01T09:42:22Z</time>
      </trkpt>
      <trkpt lat="43.74254" lon="7.01118">
        <ele>712.5</ele>
        <time>2014-02-01T09:42:43Z</time>
      </trkpt>
      <trkpt lat="43.74246" lon="7.01123">
        <ele>713.9</ele>
        <time>2014-02-01T09:42:51Z</time>
      </trkpt>
      <trkpt lat="43.74237" lon="7.0113">
        <ele>713.1</ele>
        <time>2014-02-01T09:43:00Z</time>
      </trkpt>
      <trkpt lat="43.74229" lon="7.01136">
        <ele>715.2</ele>
        <time>2014-02-01T09:43:09Z</time>
      </trkpt>
      <trkpt lat="43.7422" lon="7.01141">
        <ele>718</ele>
        <time>2014-02-01T09:43:18Z</time>
      </trkpt>
      <trkpt lat="43.74211" lon="7.01145">
        <ele>719.6</ele>
        <time>2014-02-01T09:43:27Z</time>
      </trkpt>
      <trkpt lat="43.74193" lon="7.01156">
        <ele>724.1</ele>
        <time>2014-02-01T09:43:45Z</time>
      </trkpt>
      <trkpt lat="43.74185" lon="7.01162">
        <ele>725</ele>
        <time>2014-02-01T09:43:54Z</time>
      </trkpt>
      <trkpt lat="43.74177" lon="7.01168">
        <ele>726.3</ele>
        <time>2014-02-01T09:44:02Z</time>
      </trkpt>
      <trkpt lat="43.74169" lon="7.01176">
        <ele>727.2</ele>
        <time>2014-02-01T09:44:11Z</time>
      </trkpt>
      <trkpt lat="43.74162" lon="7.01185">
        <ele>729.1</ele>
        <time>2014-02-01T09:44:20Z</time>
      </trkpt>
      <trkpt lat="43.74154" lon="7.01193">
        <ele>732.2</ele>
        <time>2014-02-01T09:44:28Z</time>
      </trkpt>
      <trkpt lat="43.74137" lon="7.012">
        <ele>737.5</ele>
        <time>2014-02-01T09:44:47Z</time>
      </trkpt>
      <trkpt lat="43.74129" lon="7.01192">
        <ele>736.8</ele>
        <time>2014-02-01T09:44:56Z</time>
      </trkpt>
      <trkpt lat="43.74126" lon="7.0118">
        <ele>737.7</ele>
        <time>2014-02-01T09:45:04Z</time>
      </trkpt>
      <trkpt lat="43.74123" lon="7.01168">
        <ele>737.4</ele>
        <time>2014-02-01T09:45:13Z</time>
      </trkpt>
      <trkpt lat="43.74113" lon="7.01169">
        <ele>741.2</ele>
        <time>2014-02-01T09:45:23Z</time>
      </trkpt>
      <trkpt lat="43.74112" lon="7.01181">
        <ele>740.9</ele>
        <time>2014-02-01T09:45:31Z</time>
      </trkpt>
      <trkpt lat="43.74115" lon="7.01209">
        <ele>742.9</ele>
        <time>2014-02-01T09:45:49Z</time>
      </trkpt>
      <trkpt lat="43.74119" lon="7.01221">
        <ele>745.3</ele>
        <time>2014-02-01T09:45:58Z</time>
      </trkpt>
      <trkpt lat="43.74126" lon="7.01231">
        <ele>745.2</ele>
        <time>2014-02-01T09:46:06Z</time>
      </trkpt>
      <trkpt lat="43.74134" lon="7.01237">
        <ele>746.4</ele>
        <time>2014-02-01T09:46:14Z</time>
      </trkpt>
      <trkpt lat="43.74143" lon="7.01243">
        <ele>748.1</ele>
        <time>2014-02-01T09:46:22Z</time>
      </trkpt>
      <trkpt lat="43.74151" lon="7.01252">
        <ele>748.7</ele>
        <time>2014-02-01T09:46:30Z</time>
      </trkpt>
      <trkpt lat="43.74157" lon="7.01261">
        <ele>748.4</ele>
        <time>2014-02-01T09:46:38Z</time>
      </trkpt>
      <trkpt lat="43.74173" lon="7.01276">
        <ele>752.6</ele>
        <time>2014-02-01T09:46:56Z</time>
      </trkpt>
      <trkpt lat="43.7417" lon="7.01288">
        <ele>754.5</ele>
        <time>2014-02-01T09:47:06Z</time>
      </trkpt>
      <trkpt lat="43.7416" lon="7.01291">
        <ele>755.2</ele>
        <time>2014-02-01T09:47:14Z</time>
      </trkpt>
      <trkpt lat="43.74151" lon="7.01293">
        <ele>756.3</ele>
        <time>2014-02-01T09:47:21Z</time>
      </trkpt>
      <trkpt lat="43.74142" lon="7.01296">
        <ele>756.8</ele>
        <time>2014-02-01T09:47:28Z</time>
      </trkpt>
      <trkpt lat="43.74134" lon="7.013">
        <ele>759.4</ele>
        <time>2014-02-01T09:47:36Z</time>
      </trkpt>
      <trkpt lat="43.74125" lon="7.01304">
        <ele>760.7</ele>
        <time>2014-02-01T09:47:45Z</time>
      </trkpt>
      <trkpt lat="43.74107" lon="7.01293">
        <ele>761.8</ele>
        <time>2014-02-01T09:48:02Z</time>
      </trkpt>
      <trkpt lat="43.74099" lon="7.01286">
        <ele>762</ele>
        <time>2014-02-01T09:48:07Z</time>
      </trkpt>
      <trkpt lat="43.74091" lon="7.01279">
        <ele>761.7</ele>
        <time>2014-02-01T09:48:12Z</time>
      </trkpt>
      <trkpt lat="43.74081" lon="7.01273">
        <ele>761.7</ele>
        <time>2014-02-01T09:48:17Z</time>
      </trkpt>
      <trkpt lat="43.74072" lon="7.01267">
        <ele>761.8</ele>
        <time>2014-02-01T09:48:22Z</time>
      </trkpt>
      <trkpt lat="43.74062" lon="7.01261">
        <ele>762</ele>
        <time>2014-02-01T09:48:28Z</time>
      </trkpt>
      <trkpt lat="43.74054" lon="7.01257">
        <ele>762.5</ele>
        <time>2014-02-01T09:48:34Z</time>
      </trkpt>
      <trkpt lat="43.74045" lon="7.01253">
        <ele>763.5</ele>
        <time>2014-02-01T09:48:41Z</time>
      </trkpt>
      <trkpt lat="43.74035" lon="7.01251">
        <ele>763.6</ele>
        <time>2014-02-01T09:48:49Z</time>
      </trkpt>
      <trkpt lat="43.74017" lon="7.01261">
        <ele>764.8</ele>
        <time>2014-02-01T09:49:04Z</time>
      </trkpt>
      <trkpt lat="43.74008" lon="7.01267">
        <ele>766.3</ele>
        <time>2014-02-01T09:49:11Z</time>
      </trkpt>
      <trkpt lat="43.74" lon="7.01273">
        <ele>766.9</ele>
        <time>2014-02-01T09:49:17Z</time>
      </trkpt>
      <trkpt lat="43.73991" lon="7.01279">
        <ele>767</ele>
        <time>2014-02-01T09:49:25Z</time>
      </trkpt>
      <trkpt lat="43.73987" lon="7.01291">
        <ele>768.9</ele>
        <time>2014-02-01T09:52:56Z</time>
      </trkpt>
      <trkpt lat="43.74004" lon="7.01302">
        <ele>770.3</ele>
        <time>2014-02-01T09:53:44Z</time>
      </trkpt>
      <trkpt lat="43.74013" lon="7.01305">
        <ele>771.6</ele>
        <time>2014-02-01T09:54:02Z</time>
      </trkpt>
      <trkpt lat="43.74032" lon="7.01314">
        <ele>773.8</ele>
        <time>2014-02-01T09:54:17Z</time>
      </trkpt>
      <trkpt lat="43.7404" lon="7.01321">
        <ele>774.6</ele>
        <time>2014-02-01T09:54:25Z</time>
      </trkpt>
      <trkpt lat="43.74047" lon="7.01329">
        <ele>779</ele>
        <time>2014-02-01T09:54:37Z</time>
      </trkpt>
      <trkpt lat="43.74053" lon="7.01339">
        <ele>779.6</ele>
        <time>2014-02-01T09:54:51Z</time>
      </trkpt>
      <trkpt lat="43.74056" lon="7.01351">
        <ele>783.4</ele>
        <time>2014-02-01T09:55:07Z</time>
      </trkpt>
      <trkpt lat="43.74067" lon="7.01372">
        <ele>787.1</ele>
        <time>2014-02-01T09:55:38Z</time>
      </trkpt>
      <trkpt lat="43.74072" lon="7.01383">
        <ele>789.5</ele>
        <time>2014-02-01T09:56:00Z</time>
      </trkpt>
      <trkpt lat="43.74077" lon="7.01393">
        <ele>789.2</ele>
        <time>2014-02-01T09:56:11Z</time>
      </trkpt>
      <trkpt lat="43.74089" lon="7.01415">
        <ele>792.8</ele>
        <time>2014-02-01T09:56:31Z</time>
      </trkpt>
      <trkpt lat="43.74096" lon="7.01424">
        <ele>793.3</ele>
        <time>2014-02-01T09:56:41Z</time>
      </trkpt>
      <trkpt lat="43.74104" lon="7.01432">
        <ele>795.6</ele>
        <time>2014-02-01T09:56:51Z</time>
      </trkpt>
      <trkpt lat="43.74112" lon="7.01439">
        <ele>798</ele>
        <time>2014-02-01T09:57:02Z</time>
      </trkpt>
      <trkpt lat="43.7412" lon="7.01445">
        <ele>798.5</ele>
        <time>2014-02-01T09:57:13Z</time>
      </trkpt>
      <trkpt lat="43.74138" lon="7.01452">
        <ele>800.5</ele>
        <time>2014-02-01T09:57:28Z</time>
      </trkpt>
      <trkpt lat="43.74147" lon="7.01455">
        <ele>801.6</ele>
        <time>2014-02-01T09:57:36Z</time>
      </trkpt>
      <trkpt lat="43.74157" lon="7.01457">
        <ele>803</ele>
        <time>2014-02-01T09:57:44Z</time>
      </trkpt>
      <trkpt lat="43.74166" lon="7.01458">
        <ele>805</ele>
        <time>2014-02-01T09:57:54Z</time>
      </trkpt>
      <trkpt lat="43.74175" lon="7.01461">
        <ele>807.2</ele>
        <time>2014-02-01T09:58:02Z</time>
      </trkpt>
      <trkpt lat="43.74184" lon="7.01463">
        <ele>808.3</ele>
        <time>2014-02-01T09:58:10Z</time>
      </trkpt>
      <trkpt lat="43.74193" lon="7.01463">
        <ele>810.6</ele>
        <time>2014-02-01T09:58:17Z</time>
      </trkpt>
      <trkpt lat="43.74213" lon="7.01466">
        <ele>811.1</ele>
        <time>2014-02-01T09:58:35Z</time>
      </trkpt>
      <trkpt lat="43.74222" lon="7.01471">
        <ele>811.8</ele>
        <time>2014-02-01T09:58:43Z</time>
      </trkpt>
      <trkpt lat="43.7423" lon="7.01478">
        <ele>813.4</ele>
        <time>2014-02-01T09:58:51Z</time>
      </trkpt>
      <trkpt lat="43.74239" lon="7.01482">
        <ele>813.5</ele>
        <time>2014-02-01T09:58:58Z</time>
      </trkpt>
      <trkpt lat="43.74249" lon="7.01482">
        <ele>813.6</ele>
        <time>2014-02-01T09:59:05Z</time>
      </trkpt>
      <trkpt lat="43.74258" lon="7.01482">
        <ele>815.8</ele>
        <time>2014-02-01T09:59:15Z</time>
      </trkpt>
      <trkpt lat="43.74268" lon="7.01483">
        <ele>816.3</ele>
        <time>2014-02-01T09:59:28Z</time>
      </trkpt>
      <trkpt lat="43.74286" lon="7.01486">
        <ele>818.3</ele>
        <time>2014-02-01T09:59:44Z</time>
      </trkpt>
      <trkpt lat="43.74297" lon="7.01486">
        <ele>819.4</ele>
        <time>2014-02-01T09:59:51Z</time>
      </trkpt>
      <trkpt lat="43.74307" lon="7.01486">
        <ele>819</ele>
        <time>2014-02-01T09:59:57Z</time>
      </trkpt>
      <trkpt lat="43.74316" lon="7.01484">
        <ele>819.9</ele>
        <time>2014-02-01T10:00:03Z</time>
      </trkpt>
      <trkpt lat="43.74325" lon="7.01488">
        <ele>821.6</ele>
        <time>2014-02-01T10:00:10Z</time>
      </trkpt>
      <trkpt lat="43.74334" lon="7.01493">
        <ele>823.7</ele>
        <time>2014-02-01T10:00:36Z</time>
      </trkpt>
      <trkpt lat="43.74352" lon="7.0149">
        <ele>825.6</ele>
        <time>2014-02-01T10:01:03Z</time>
      </trkpt>
      <trkpt lat="43.74351" lon="7.01503">
        <ele>828.3</ele>
        <time>2014-02-01T10:01:47Z</time>
      </trkpt>
      <trkpt lat="43.74355" lon="7.01514">
        <ele>832.6</ele>
        <time>2014-02-01T10:02:34Z</time>
      </trkpt>
      <trkpt lat="43.74365" lon="7.0151">
        <ele>833</ele>
        <time>2014-02-01T10:02:47Z</time>
      </trkpt>
      <trkpt lat="43.74369" lon="7.01523">
        <ele>838.8</ele>
        <time>2014-02-01T10:03:22Z</time>
      </trkpt>
      <trkpt lat="43.74363" lon="7.01531">
        <ele>839.5</ele>
        <time>2014-02-01T10:03:32Z</time>
      </trkpt>
      <trkpt lat="43.74358" lon="7.01543">
        <ele>840.5</ele>
        <time>2014-02-01T10:03:45Z</time>
      </trkpt>
      <trkpt lat="43.7435" lon="7.0155">
        <ele>841.3</ele>
        <time>2014-02-01T10:03:57Z</time>
      </trkpt>
      <trkpt lat="43.74367" lon="7.01549">
        <ele>845.9</ele>
        <time>2014-02-01T10:04:47Z</time>
      </trkpt>
      <trkpt lat="43.74374" lon="7.01539">
        <ele>847.8</ele>
        <time>2014-02-01T10:05:00Z</time>
      </trkpt>
      <trkpt lat="43.74392" lon="7.01535">
        <ele>850.5</ele>
        <time>2014-02-01T10:05:28Z</time>
      </trkpt>
      <trkpt lat="43.74399" lon="7.01527">
        <ele>853.3</ele>
        <time>2014-02-01T10:05:43Z</time>
      </trkpt>
      <trkpt lat="43.74407" lon="7.01519">
        <ele>854.6</ele>
        <time>2014-02-01T10:05:56Z</time>
      </trkpt>
      <trkpt lat="43.74415" lon="7.01514">
        <ele>855.1</ele>
        <time>2014-02-01T10:06:08Z</time>
      </trkpt>
      <trkpt lat="43.74431" lon="7.01499">
        <ele>858.8</ele>
        <time>2014-02-01T10:06:31Z</time>
      </trkpt>
      <trkpt lat="43.7444" lon="7.01496">
        <ele>860.3</ele>
        <time>2014-02-01T10:06:43Z</time>
      </trkpt>
      <trkpt lat="43.74449" lon="7.01493">
        <ele>860.7</ele>
        <time>2014-02-01T10:07:07Z</time>
      </trkpt>
      <trkpt lat="43.74458" lon="7.01489">
        <ele>861.9</ele>
        <time>2014-02-01T10:07:16Z</time>
      </trkpt>
      <trkpt lat="43.74476" lon="7.01479">
        <ele>866.1</ele>
        <time>2014-02-01T10:07:37Z</time>
      </trkpt>
      <trkpt lat="43.74484" lon="7.01475">
        <ele>866.9</ele>
        <time>2014-02-01T10:07:44Z</time>
      </trkpt>
      <trkpt lat="43.74494" lon="7.0147">
        <ele>867.3</ele>
        <time>2014-02-01T10:07:52Z</time>
      </trkpt>
      <trkpt lat="43.74503" lon="7.01465">
        <ele>867.7</ele>
        <time>2014-02-01T10:08:03Z</time>
      </trkpt>
      <trkpt lat="43.74511" lon="7.01457">
        <ele>870.3</ele>
        <time>2014-02-01T10:08:12Z</time>
      </trkpt>
      <trkpt lat="43.74519" lon="7.01454">
        <ele>871</ele>
        <time>2014-02-01T10:08:22Z</time>
      </trkpt>
      <trkpt lat="43.74537" lon="7.01442">
        <ele>874.1</ele>
        <time>2014-02-01T10:08:45Z</time>
      </trkpt>
      <trkpt lat="43.74546" lon="7.01436">
        <ele>873.4</ele>
        <time>2014-02-01T10:08:54Z</time>
      </trkpt>
      <trkpt lat="43.74555" lon="7.01432">
        <ele>873.6</ele>
        <time>2014-02-01T10:09:03Z</time>
      </trkpt>
      <trkpt lat="43.74564" lon="7.01429">
        <ele>874.8</ele>
        <time>2014-02-01T10:09:13Z</time>
      </trkpt>
      <trkpt lat="43.74573" lon="7.01428">
        <ele>876.8</ele>
        <time>2014-02-01T10:09:24Z</time>
      </trkpt>
      <trkpt lat="43.74592" lon="7.01426">
        <ele>880.8</ele>
        <time>2014-02-01T10:09:56Z</time>
      </trkpt>
      <trkpt lat="43.74601" lon="7.01423">
        <ele>881.8</ele>
        <time>2014-02-01T10:10:11Z</time>
      </trkpt>
      <trkpt lat="43.7461" lon="7.01418">
        <ele>882.1</ele>
        <time>2014-02-01T10:10:25Z</time>
      </trkpt>
      <trkpt lat="43.74625" lon="7.01404">
        <ele>887.5</ele>
        <time>2014-02-01T10:10:55Z</time>
      </trkpt>
      <trkpt lat="43.74631" lon="7.01394">
        <ele>888.6</ele>
        <time>2014-02-01T10:11:09Z</time>
      </trkpt>
      <trkpt lat="43.74638" lon="7.01403">
        <ele>893.3</ele>
        <time>2014-02-01T10:11:40Z</time>
      </trkpt>
      <trkpt lat="43.74635" lon="7.01429">
        <ele>896.2</ele>
        <time>2014-02-01T10:12:06Z</time>
      </trkpt>
      <trkpt lat="43.74644" lon="7.01423">
        <ele>900.4</ele>
        <time>2014-02-01T10:12:47Z</time>
      </trkpt>
      <trkpt lat="43.74654" lon="7.01402">
        <ele>903.1</ele>
        <time>2014-02-01T10:13:13Z</time>
      </trkpt>
      <trkpt lat="43.74659" lon="7.01391">
        <ele>905.4</ele>
        <time>2014-02-01T10:13:28Z</time>
      </trkpt>
      <trkpt lat="43.74667" lon="7.01385">
        <ele>908.1</ele>
        <time>2014-02-01T10:13:45Z</time>
      </trkpt>
      <trkpt lat="43.74676" lon="7.01384">
        <ele>908.7</ele>
        <time>2014-02-01T10:13:57Z</time>
      </trkpt>
      <trkpt lat="43.74672" lon="7.01409">
        <ele>913.1</ele>
        <time>2014-02-01T10:14:30Z</time>
      </trkpt>
      <trkpt lat="43.7467" lon="7.01422">
        <ele>914.6</ele>
        <time>2014-02-01T10:14:45Z</time>
      </trkpt>
      <trkpt lat="43.74668" lon="7.01435">
        <ele>916.5</ele>
        <time>2014-02-01T10:14:59Z</time>
      </trkpt>
      <trkpt lat="43.74664" lon="7.0146">
        <ele>920.7</ele>
        <time>2014-02-01T10:15:25Z</time>
      </trkpt>
      <trkpt lat="43.74661" lon="7.01472">
        <ele>922.7</ele>
        <time>2014-02-01T10:15:42Z</time>
      </trkpt>
      <trkpt lat="43.74656" lon="7.01482">
        <ele>923.4</ele>
        <time>2014-02-01T10:15:57Z</time>
      </trkpt>
      <trkpt lat="43.74651" lon="7.01493">
        <ele>925.2</ele>
        <time>2014-02-01T10:16:11Z</time>
      </trkpt>
      <trkpt lat="43.74638" lon="7.01512">
        <ele>927.1</ele>
        <time>2014-02-01T10:16:38Z</time>
      </trkpt>
      <trkpt lat="43.74631" lon="7.01519">
        <ele>928.2</ele>
        <time>2014-02-01T10:16:51Z</time>
      </trkpt>
      <trkpt lat="43.74627" lon="7.0153">
        <ele>929.5</ele>
        <time>2014-02-01T10:17:49Z</time>
      </trkpt>
      <trkpt lat="43.74641" lon="7.01517">
        <ele>931.7</ele>
        <time>2014-02-01T10:27:26Z</time>
      </trkpt>
      <trkpt lat="43.74657" lon="7.01504">
        <ele>933.7</ele>
        <time>2014-02-01T10:27:49Z</time>
      </trkpt>
      <trkpt lat="43.74664" lon="7.01496">
        <ele>934.8</ele>
        <time>2014-02-01T10:28:01Z</time>
      </trkpt>
      <trkpt lat="43.7467" lon="7.01486">
        <ele>936</ele>
        <time>2014-02-01T10:28:12Z</time>
      </trkpt>
      <trkpt lat="43.74676" lon="7.01477">
        <ele>935.9</ele>
        <time>2014-02-01T10:28:22Z</time>
      </trkpt>
      <trkpt lat="43.74683" lon="7.01468">
        <ele>936.9</ele>
        <time>2014-02-01T10:28:33Z</time>
      </trkpt>
      <trkpt lat="43.74695" lon="7.01448">
        <ele>938.2</ele>
        <time>2014-02-01T10:28:55Z</time>
      </trkpt>
      <trkpt lat="43.74699" lon="7.01436">
        <ele>938.8</ele>
        <time>2014-02-01T10:29:06Z</time>
      </trkpt>
      <trkpt lat="43.74704" lon="7.01426">
        <ele>939.8</ele>
        <time>2014-02-01T10:29:17Z</time>
      </trkpt>
      <trkpt lat="43.7471" lon="7.01415">
        <ele>938.9</ele>
        <time>2014-02-01T10:29:29Z</time>
      </trkpt>
      <trkpt lat="43.74716" lon="7.01405">
        <ele>941</ele>
        <time>2014-02-01T10:29:40Z</time>
      </trkpt>
      <trkpt lat="43.74731" lon="7.0139">
        <ele>940.7</ele>
        <time>2014-02-01T10:30:01Z</time>
      </trkpt>
      <trkpt lat="43.7474" lon="7.01393">
        <ele>940</ele>
        <time>2014-02-01T10:30:29Z</time>
      </trkpt>
      <trkpt lat="43.74749" lon="7.014">
        <ele>940.3</ele>
        <time>2014-02-01T10:31:16Z</time>
      </trkpt>
      <trkpt lat="43.74764" lon="7.01418">
        <ele>941.1</ele>
        <time>2014-02-01T10:31:39Z</time>
      </trkpt>
      <trkpt lat="43.74771" lon="7.01427">
        <ele>940.5</ele>
        <time>2014-02-01T10:31:49Z</time>
      </trkpt>
      <trkpt lat="43.74778" lon="7.01435">
        <ele>940.8</ele>
        <time>2014-02-01T10:31:59Z</time>
      </trkpt>
      <trkpt lat="43.74785" lon="7.01443">
        <ele>940.6</ele>
        <time>2014-02-01T10:32:11Z</time>
      </trkpt>
      <trkpt lat="43.74794" lon="7.01449">
        <ele>940.4</ele>
        <time>2014-02-01T10:32:23Z</time>
      </trkpt>
      <trkpt lat="43.74809" lon="7.01464">
        <ele>942.2</ele>
        <time>2014-02-01T10:32:43Z</time>
      </trkpt>
      <trkpt lat="43.74815" lon="7.01474">
        <ele>941.2</ele>
        <time>2014-02-01T10:32:52Z</time>
      </trkpt>
      <trkpt lat="43.74821" lon="7.01484">
        <ele>941</ele>
        <time>2014-02-01T10:33:01Z</time>
      </trkpt>
      <trkpt lat="43.74827" lon="7.01493">
        <ele>941.2</ele>
        <time>2014-02-01T10:33:10Z</time>
      </trkpt>
      <trkpt lat="43.74834" lon="7.01503">
        <ele>941.8</ele>
        <time>2014-02-01T10:33:20Z</time>
      </trkpt>
      <trkpt lat="43.74839" lon="7.01514">
        <ele>940.9</ele>
        <time>2014-02-01T10:33:29Z</time>
      </trkpt>
      <trkpt lat="43.7485" lon="7.01535">
        <ele>942.4</ele>
        <time>2014-02-01T10:33:48Z</time>
      </trkpt>
      <trkpt lat="43.74856" lon="7.01544">
        <ele>943.5</ele>
        <time>2014-02-01T10:34:00Z</time>
      </trkpt>
      <trkpt lat="43.74865" lon="7.0155">
        <ele>945.7</ele>
        <time>2014-02-01T10:34:16Z</time>
      </trkpt>
      <trkpt lat="43.74873" lon="7.01555">
        <ele>945</ele>
        <time>2014-02-01T10:34:30Z</time>
      </trkpt>
      <trkpt lat="43.74889" lon="7.01567">
        <ele>947.5</ele>
        <time>2014-02-01T10:34:50Z</time>
      </trkpt>
      <trkpt lat="43.74898" lon="7.01573">
        <ele>947.9</ele>
        <time>2014-02-01T10:35:00Z</time>
      </trkpt>
      <trkpt lat="43.74906" lon="7.01578">
        <ele>949.9</ele>
        <time>2014-02-01T10:35:11Z</time>
      </trkpt>
      <trkpt lat="43.74915" lon="7.01581">
        <ele>950.7</ele>
        <time>2014-02-01T10:35:22Z</time>
      </trkpt>
      <trkpt lat="43.74924" lon="7.01584">
        <ele>951.3</ele>
        <time>2014-02-01T10:35:33Z</time>
      </trkpt>
      <trkpt lat="43.74942" lon="7.01593">
        <ele>953</ele>
        <time>2014-02-01T10:35:57Z</time>
      </trkpt>
      <trkpt lat="43.7495" lon="7.01597">
        <ele>956.7</ele>
        <time>2014-02-01T10:36:10Z</time>
      </trkpt>
      <trkpt lat="43.74959" lon="7.01602">
        <ele>957</ele>
        <time>2014-02-01T10:36:23Z</time>
      </trkpt>
      <trkpt lat="43.74967" lon="7.01607">
        <ele>959.6</ele>
        <time>2014-02-01T10:36:37Z</time>
      </trkpt>
      <trkpt lat="43.74986" lon="7.01612">
        <ele>963.8</ele>
        <time>2014-02-01T10:37:07Z</time>
      </trkpt>
      <trkpt lat="43.74995" lon="7.01614">
        <ele>965.6</ele>
        <time>2014-02-01T10:37:20Z</time>
      </trkpt>
      <trkpt lat="43.75004" lon="7.01616">
        <ele>966.2</ele>
        <time>2014-02-01T10:37:32Z</time>
      </trkpt>
      <trkpt lat="43.75013" lon="7.01619">
        <ele>968.7</ele>
        <time>2014-02-01T10:37:44Z</time>
      </trkpt>
      <trkpt lat="43.75031" lon="7.01619">
        <ele>970.5</ele>
        <time>2014-02-01T10:38:08Z</time>
      </trkpt>
      <trkpt lat="43.75041" lon="7.01621">
        <ele>970.8</ele>
        <time>2014-02-01T10:38:21Z</time>
      </trkpt>
      <trkpt lat="43.7505" lon="7.01621">
        <ele>971.6</ele>
        <time>2014-02-01T10:38:35Z</time>
      </trkpt>
      <trkpt lat="43.75059" lon="7.0162">
        <ele>974.4</ele>
        <time>2014-02-01T10:38:50Z</time>
      </trkpt>
      <trkpt lat="43.75078" lon="7.01623">
        <ele>977.3</ele>
        <time>2014-02-01T10:39:20Z</time>
      </trkpt>
      <trkpt lat="43.75087" lon="7.01618">
        <ele>980.5</ele>
        <time>2014-02-01T10:39:34Z</time>
      </trkpt>
      <trkpt lat="43.75093" lon="7.01609">
        <ele>982.8</ele>
        <time>2014-02-01T10:39:48Z</time>
      </trkpt>
      <trkpt lat="43.75102" lon="7.01604">
        <ele>984.5</ele>
        <time>2014-02-01T10:41:17Z</time>
      </trkpt>
      <trkpt lat="43.7513" lon="7.01613">
        <ele>976</ele>
        <time>2014-02-01T10:50:43Z</time>
      </trkpt>
      <trkpt lat="43.75139" lon="7.01617">
        <ele>974.9</ele>
        <time>2014-02-01T10:50:52Z</time>
      </trkpt>
      <trkpt lat="43.75148" lon="7.01621">
        <ele>974.5</ele>
        <time>2014-02-01T10:51:03Z</time>
      </trkpt>
      <trkpt lat="43.75157" lon="7.01625">
        <ele>974.3</ele>
        <time>2014-02-01T10:51:12Z</time>
      </trkpt>
      <trkpt lat="43.75166" lon="7.01629">
        <ele>974.5</ele>
        <time>2014-02-01T10:51:21Z</time>
      </trkpt>
      <trkpt lat="43.75175" lon="7.01635">
        <ele>974.3</ele>
        <time>2014-02-01T10:51:31Z</time>
      </trkpt>
      <trkpt lat="43.75191" lon="7.01651">
        <ele>973.7</ele>
        <time>2014-02-01T10:51:52Z</time>
      </trkpt>
      <trkpt lat="43.75198" lon="7.01659">
        <ele>974.2</ele>
        <time>2014-02-01T10:52:01Z</time>
      </trkpt>
      <trkpt lat="43.75206" lon="7.01668">
        <ele>973.3</ele>
        <time>2014-02-01T10:52:10Z</time>
      </trkpt>
      <trkpt lat="43.75214" lon="7.01676">
        <ele>971.7</ele>
        <time>2014-02-01T10:52:19Z</time>
      </trkpt>
      <trkpt lat="43.75222" lon="7.01683">
        <ele>972.8</ele>
        <time>2014-02-01T10:52:28Z</time>
      </trkpt>
      <trkpt lat="43.75231" lon="7.0169">
        <ele>972.9</ele>
        <time>2014-02-01T10:52:37Z</time>
      </trkpt>
      <trkpt lat="43.75247" lon="7.01704">
        <ele>973.1</ele>
        <time>2014-02-01T10:52:56Z</time>
      </trkpt>
      <trkpt lat="43.75256" lon="7.01711">
        <ele>971.4</ele>
        <time>2014-02-01T10:53:06Z</time>
      </trkpt>
      <trkpt lat="43.75264" lon="7.01719">
        <ele>972.6</ele>
        <time>2014-02-01T10:53:15Z</time>
      </trkpt>
      <trkpt lat="43.75272" lon="7.01727">
        <ele>971.9</ele>
        <time>2014-02-01T10:53:24Z</time>
      </trkpt>
      <trkpt lat="43.7528" lon="7.01734">
        <ele>972.8</ele>
        <time>2014-02-01T10:53:34Z</time>
      </trkpt>
      <trkpt lat="43.75287" lon="7.01742">
        <ele>973.4</ele>
        <time>2014-02-01T10:53:44Z</time>
      </trkpt>
      <trkpt lat="43.75303" lon="7.01754">
        <ele>974</ele>
        <time>2014-02-01T10:54:04Z</time>
      </trkpt>
      <trkpt lat="43.75311" lon="7.01761">
        <ele>975</ele>
        <time>2014-02-01T10:54:14Z</time>
      </trkpt>
      <trkpt lat="43.75319" lon="7.01767">
        <ele>974.8</ele>
        <time>2014-02-01T10:54:25Z</time>
      </trkpt>
      <trkpt lat="43.75328" lon="7.01773">
        <ele>975.5</ele>
        <time>2014-02-01T10:54:36Z</time>
      </trkpt>
      <trkpt lat="43.75336" lon="7.0178">
        <ele>975.6</ele>
        <time>2014-02-01T10:54:48Z</time>
      </trkpt>
      <trkpt lat="43.75351" lon="7.01794">
        <ele>977.9</ele>
        <time>2014-02-01T10:55:09Z</time>
      </trkpt>
      <trkpt lat="43.7536" lon="7.018">
        <ele>978.3</ele>
        <time>2014-02-01T10:55:19Z</time>
      </trkpt>
      <trkpt lat="43.7537" lon="7.018">
        <ele>978.2</ele>
        <time>2014-02-01T10:55:28Z</time>
      </trkpt>
      <trkpt lat="43.75379" lon="7.01797">
        <ele>978.8</ele>
        <time>2014-02-01T10:55:38Z</time>
      </trkpt>
      <trkpt lat="43.75389" lon="7.01794">
        <ele>978.3</ele>
        <time>2014-02-01T10:55:49Z</time>
      </trkpt>
      <trkpt lat="43.75407" lon="7.0179">
        <ele>978.7</ele>
        <time>2014-02-01T10:56:07Z</time>
      </trkpt>
      <trkpt lat="43.75416" lon="7.01791">
        <ele>979.4</ele>
        <time>2014-02-01T10:56:17Z</time>
      </trkpt>
      <trkpt lat="43.75426" lon="7.01792">
        <ele>978.9</ele>
        <time>2014-02-01T10:56:27Z</time>
      </trkpt>
      <trkpt lat="43.75435" lon="7.01795">
        <ele>979</ele>
        <time>2014-02-01T10:56:37Z</time>
      </trkpt>
      <trkpt lat="43.75445" lon="7.018">
        <ele>979.1</ele>
        <time>2014-02-01T10:56:47Z</time>
      </trkpt>
      <trkpt lat="43.75452" lon="7.01806">
        <ele>979.7</ele>
        <time>2014-02-01T10:57:00Z</time>
      </trkpt>
      <trkpt lat="43.75464" lon="7.01814">
        <ele>973.6</ele>
        <time>2014-02-01T11:00:15Z</time>
      </trkpt>
      <trkpt lat="43.75474" lon="7.01816">
        <ele>973.4</ele>
        <time>2014-02-01T11:00:23Z</time>
      </trkpt>
      <trkpt lat="43.75483" lon="7.01816">
        <ele>973.6</ele>
        <time>2014-02-01T11:00:30Z</time>
      </trkpt>
      <trkpt lat="43.75501" lon="7.0182">
        <ele>973</ele>
        <time>2014-02-01T11:00:57Z</time>
      </trkpt>
      <trkpt lat="43.75511" lon="7.01822">
        <ele>972.2</ele>
        <time>2014-02-01T11:01:08Z</time>
      </trkpt>
      <trkpt lat="43.7552" lon="7.01824">
        <ele>972.4</ele>
        <time>2014-02-01T11:01:17Z</time>
      </trkpt>
      <trkpt lat="43.75529" lon="7.01825">
        <ele>972.2</ele>
        <time>2014-02-01T11:01:26Z</time>
      </trkpt>
      <trkpt lat="43.75539" lon="7.01826">
        <ele>970.7</ele>
        <time>2014-02-01T11:01:47Z</time>
      </trkpt>
      <trkpt lat="43.75561" lon="7.01829">
        <ele>969.5</ele>
        <time>2014-02-01T11:01:58Z</time>
      </trkpt>
      <trkpt lat="43.7557" lon="7.01832">
        <ele>967.9</ele>
        <time>2014-02-01T11:02:03Z</time>
      </trkpt>
      <trkpt lat="43.75579" lon="7.01835">
        <ele>966.8</ele>
        <time>2014-02-01T11:02:16Z</time>
      </trkpt>
      <trkpt lat="43.75588" lon="7.01836">
        <ele>968.3</ele>
        <time>2014-02-01T11:02:26Z</time>
      </trkpt>
      <trkpt lat="43.75598" lon="7.01837">
        <ele>968.1</ele>
        <time>2014-02-01T11:02:37Z</time>
      </trkpt>
      <trkpt lat="43.75607" lon="7.01837">
        <ele>967.2</ele>
        <time>2014-02-01T11:02:48Z</time>
      </trkpt>
      <trkpt lat="43.75635" lon="7.01845">
        <ele>967.6</ele>
        <time>2014-02-01T11:04:22Z</time>
      </trkpt>
      <trkpt lat="43.75643" lon="7.01849">
        <ele>968.5</ele>
        <time>2014-02-01T11:04:32Z</time>
      </trkpt>
      <trkpt lat="43.75653" lon="7.01848">
        <ele>969.2</ele>
        <time>2014-02-01T11:04:42Z</time>
      </trkpt>
      <trkpt lat="43.75662" lon="7.01845">
        <ele>968.8</ele>
        <time>2014-02-01T11:04:51Z</time>
      </trkpt>
      <trkpt lat="43.75672" lon="7.01842">
        <ele>969.3</ele>
        <time>2014-02-01T11:05:02Z</time>
      </trkpt>
      <trkpt lat="43.75681" lon="7.01841">
        <ele>969.9</ele>
        <time>2014-02-01T11:05:12Z</time>
      </trkpt>
      <trkpt lat="43.757" lon="7.01835">
        <ele>969.5</ele>
        <time>2014-02-01T11:05:33Z</time>
      </trkpt>
      <trkpt lat="43.75709" lon="7.01832">
        <ele>969.3</ele>
        <time>2014-02-01T11:05:43Z</time>
      </trkpt>
      <trkpt lat="43.75717" lon="7.01825">
        <ele>969.2</ele>
        <time>2014-02-01T11:05:53Z</time>
      </trkpt>
      <trkpt lat="43.75722" lon="7.01813">
        <ele>969.1</ele>
        <time>2014-02-01T11:06:03Z</time>
      </trkpt>
      <trkpt lat="43.75726" lon="7.01801">
        <ele>969.1</ele>
        <time>2014-02-01T11:06:13Z</time>
      </trkpt>
      <trkpt lat="43.75732" lon="7.01776">
        <ele>969.3</ele>
        <time>2014-02-01T11:06:34Z</time>
      </trkpt>
      <trkpt lat="43.75732" lon="7.01762">
        <ele>969.9</ele>
        <time>2014-02-01T11:06:46Z</time>
      </trkpt>
      <trkpt lat="43.75733" lon="7.0175">
        <ele>969</ele>
        <time>2014-02-01T11:06:56Z</time>
      </trkpt>
      <trkpt lat="43.75738" lon="7.01739">
        <ele>970.9</ele>
        <time>2014-02-01T11:07:06Z</time>
      </trkpt>
      <trkpt lat="43.75745" lon="7.0173">
        <ele>970.6</ele>
        <time>2014-02-01T11:07:16Z</time>
      </trkpt>
      <trkpt lat="43.75759" lon="7.01712">
        <ele>971.7</ele>
        <time>2014-02-01T11:07:36Z</time>
      </trkpt>
      <trkpt lat="43.7576" lon="7.01699">
        <ele>971.6</ele>
        <time>2014-02-01T11:07:47Z</time>
      </trkpt>
      <trkpt lat="43.75761" lon="7.01687">
        <ele>972.5</ele>
        <time>2014-02-01T11:08:25Z</time>
      </trkpt>
      <trkpt lat="43.75773" lon="7.01667">
        <ele>972.8</ele>
        <time>2014-02-01T11:08:46Z</time>
      </trkpt>
      <trkpt lat="43.7578" lon="7.01658">
        <ele>974.7</ele>
        <time>2014-02-01T11:08:57Z</time>
      </trkpt>
      <trkpt lat="43.75781" lon="7.01645">
        <ele>975.5</ele>
        <time>2014-02-01T11:09:08Z</time>
      </trkpt>
      <trkpt lat="43.75779" lon="7.01632">
        <ele>975.1</ele>
        <time>2014-02-01T11:09:18Z</time>
      </trkpt>
      <trkpt lat="43.7578" lon="7.01619">
        <ele>975.8</ele>
        <time>2014-02-01T11:09:28Z</time>
      </trkpt>
      <trkpt lat="43.75771" lon="7.01597">
        <ele>974.7</ele>
        <time>2014-02-01T11:09:46Z</time>
      </trkpt>
      <trkpt lat="43.75772" lon="7.01584">
        <ele>973.7</ele>
        <time>2014-02-01T11:09:57Z</time>
      </trkpt>
      <trkpt lat="43.75779" lon="7.01575">
        <ele>974.4</ele>
        <time>2014-02-01T11:10:07Z</time>
      </trkpt>
      <trkpt lat="43.75786" lon="7.01567">
        <ele>974.4</ele>
        <time>2014-02-01T11:10:17Z</time>
      </trkpt>
      <trkpt lat="43.75793" lon="7.01559">
        <ele>973.9</ele>
        <time>2014-02-01T11:10:37Z</time>
      </trkpt>
      <trkpt lat="43.75802" lon="7.01537">
        <ele>967.3</ele>
        <time>2014-02-01T11:14:18Z</time>
      </trkpt>
      <trkpt lat="43.75821" lon="7.01529">
        <ele>964.5</ele>
        <time>2014-02-01T11:14:45Z</time>
      </trkpt>
      <trkpt lat="43.7583" lon="7.01525">
        <ele>963.7</ele>
        <time>2014-02-01T11:14:56Z</time>
      </trkpt>
      <trkpt lat="43.75838" lon="7.01519">
        <ele>962.6</ele>
        <time>2014-02-01T11:15:03Z</time>
      </trkpt>
      <trkpt lat="43.75847" lon="7.01513">
        <ele>960</ele>
        <time>2014-02-01T11:15:12Z</time>
      </trkpt>
      <trkpt lat="43.75854" lon="7.01506">
        <ele>959.4</ele>
        <time>2014-02-01T11:15:18Z</time>
      </trkpt>
      <trkpt lat="43.75862" lon="7.01499">
        <ele>957.3</ele>
        <time>2014-02-01T11:15:23Z</time>
      </trkpt>
      <trkpt lat="43.7588" lon="7.01484">
        <ele>954.6</ele>
        <time>2014-02-01T11:15:33Z</time>
      </trkpt>
      <trkpt lat="43.75888" lon="7.01477">
        <ele>952.6</ele>
        <time>2014-02-01T11:15:37Z</time>
      </trkpt>
      <trkpt lat="43.75897" lon="7.01468">
        <ele>950.7</ele>
        <time>2014-02-01T11:15:41Z</time>
      </trkpt>
      <trkpt lat="43.75906" lon="7.01464">
        <ele>948.2</ele>
        <time>2014-02-01T11:15:47Z</time>
      </trkpt>
      <trkpt lat="43.75915" lon="7.01461">
        <ele>946.4</ele>
        <time>2014-02-01T11:15:53Z</time>
      </trkpt>
      <trkpt lat="43.75924" lon="7.01457">
        <ele>943.6</ele>
        <time>2014-02-01T11:16:02Z</time>
      </trkpt>
      <trkpt lat="43.75934" lon="7.01451">
        <ele>942.9</ele>
        <time>2014-02-01T11:16:10Z</time>
      </trkpt>
      <trkpt lat="43.75943" lon="7.01447">
        <ele>941.1</ele>
        <time>2014-02-01T11:16:17Z</time>
      </trkpt>
      <trkpt lat="43.75952" lon="7.01443">
        <ele>938.8</ele>
        <time>2014-02-01T11:16:29Z</time>
      </trkpt>
      <trkpt lat="43.75969" lon="7.01432">
        <ele>938.2</ele>
        <time>2014-02-01T11:16:59Z</time>
      </trkpt>
      <trkpt lat="43.75977" lon="7.01425">
        <ele>937.2</ele>
        <time>2014-02-01T11:17:09Z</time>
      </trkpt>
      <trkpt lat="43.75986" lon="7.0142">
        <ele>935.9</ele>
        <time>2014-02-01T11:17:18Z</time>
      </trkpt>
      <trkpt lat="43.75994" lon="7.0141">
        <ele>933.4</ele>
        <time>2014-02-01T11:17:25Z</time>
      </trkpt>
      <trkpt lat="43.76001" lon="7.01402">
        <ele>932.4</ele>
        <time>2014-02-01T11:17:28Z</time>
      </trkpt>
      <trkpt lat="43.76009" lon="7.01391">
        <ele>931.3</ele>
        <time>2014-02-01T11:17:33Z</time>
      </trkpt>
      <trkpt lat="43.76019" lon="7.01366">
        <ele>927.8</ele>
        <time>2014-02-01T11:17:41Z</time>
      </trkpt>
      <trkpt lat="43.76025" lon="7.01355">
        <ele>926.5</ele>
        <time>2014-02-01T11:17:46Z</time>
      </trkpt>
      <trkpt lat="43.76032" lon="7.01344">
        <ele>922.9</ele>
        <time>2014-02-01T11:17:54Z</time>
      </trkpt>
      <trkpt lat="43.76039" lon="7.01336">
        <ele>922</ele>
        <time>2014-02-01T11:18:00Z</time>
      </trkpt>
      <trkpt lat="43.76046" lon="7.01328">
        <ele>920</ele>
        <time>2014-02-01T11:18:11Z</time>
      </trkpt>
      <trkpt lat="43.76047" lon="7.01315">
        <ele>918.2</ele>
        <time>2014-02-01T11:18:30Z</time>
      </trkpt>
      <trkpt lat="43.76048" lon="7.013">
        <ele>916.6</ele>
        <time>2014-02-01T11:18:36Z</time>
      </trkpt>
      <trkpt lat="43.76056" lon="7.01277">
        <ele>913</ele>
        <time>2014-02-01T11:18:52Z</time>
      </trkpt>
      <trkpt lat="43.76059" lon="7.01264">
        <ele>913.6</ele>
        <time>2014-02-01T11:19:03Z</time>
      </trkpt>
      <trkpt lat="43.76058" lon="7.01249">
        <ele>912.8</ele>
        <time>2014-02-01T11:19:11Z</time>
      </trkpt>
      <trkpt lat="43.76054" lon="7.01234">
        <ele>910.8</ele>
        <time>2014-02-01T11:19:15Z</time>
      </trkpt>
      <trkpt lat="43.76051" lon="7.0122">
        <ele>909.5</ele>
        <time>2014-02-01T11:19:18Z</time>
      </trkpt>
      <trkpt lat="43.76051" lon="7.01206">
        <ele>907.6</ele>
        <time>2014-02-01T11:19:22Z</time>
      </trkpt>
      <trkpt lat="43.76052" lon="7.01192">
        <ele>904.9</ele>
        <time>2014-02-01T11:19:27Z</time>
      </trkpt>
      <trkpt lat="43.76054" lon="7.0118">
        <ele>903.6</ele>
        <time>2014-02-01T11:19:48Z</time>
      </trkpt>
      <trkpt lat="43.76063" lon="7.01156">
        <ele>904.5</ele>
        <time>2014-02-01T11:20:10Z</time>
      </trkpt>
      <trkpt lat="43.76069" lon="7.01146">
        <ele>904.9</ele>
        <time>2014-02-01T11:20:22Z</time>
      </trkpt>
      <trkpt lat="43.76072" lon="7.01134">
        <ele>904.6</ele>
        <time>2014-02-01T11:20:32Z</time>
      </trkpt>
      <trkpt lat="43.76077" lon="7.01123">
        <ele>904.3</ele>
        <time>2014-02-01T11:20:42Z</time>
      </trkpt>
      <trkpt lat="43.76082" lon="7.01113">
        <ele>905.1</ele>
        <time>2014-02-01T11:20:54Z</time>
      </trkpt>
      <trkpt lat="43.76086" lon="7.01088">
        <ele>904.5</ele>
        <time>2014-02-01T11:21:14Z</time>
      </trkpt>
      <trkpt lat="43.76087" lon="7.01074">
        <ele>904.3</ele>
        <time>2014-02-01T11:21:19Z</time>
      </trkpt>
      <trkpt lat="43.76089" lon="7.01061">
        <ele>903.2</ele>
        <time>2014-02-01T11:21:24Z</time>
      </trkpt>
      <trkpt lat="43.76091" lon="7.01049">
        <ele>902.6</ele>
        <time>2014-02-01T11:21:29Z</time>
      </trkpt>
      <trkpt lat="43.76092" lon="7.01036">
        <ele>901</ele>
        <time>2014-02-01T11:21:34Z</time>
      </trkpt>
      <trkpt lat="43.76095" lon="7.01023">
        <ele>900.3</ele>
        <time>2014-02-01T11:21:44Z</time>
      </trkpt>
      <trkpt lat="43.76098" lon="7.01011">
        <ele>900</ele>
        <time>2014-02-01T11:21:57Z</time>
      </trkpt>
      <trkpt lat="43.76101" lon="7.00983">
        <ele>898.8</ele>
        <time>2014-02-01T11:22:27Z</time>
      </trkpt>
      <trkpt lat="43.76106" lon="7.00971">
        <ele>898.2</ele>
        <time>2014-02-01T11:22:42Z</time>
      </trkpt>
      <trkpt lat="43.76111" lon="7.0096">
        <ele>898.2</ele>
        <time>2014-02-01T11:22:55Z</time>
      </trkpt>
      <trkpt lat="43.76115" lon="7.00948">
        <ele>899.4</ele>
        <time>2014-02-01T11:23:06Z</time>
      </trkpt>
      <trkpt lat="43.76124" lon="7.00925">
        <ele>898</ele>
        <time>2014-02-01T11:23:27Z</time>
      </trkpt>
      <trkpt lat="43.76118" lon="7.00914">
        <ele>898.1</ele>
        <time>2014-02-01T11:23:40Z</time>
      </trkpt>
      <trkpt lat="43.76112" lon="7.00904">
        <ele>897.7</ele>
        <time>2014-02-01T11:23:52Z</time>
      </trkpt>
      <trkpt lat="43.76107" lon="7.00891">
        <ele>896</ele>
        <time>2014-02-01T11:23:56Z</time>
      </trkpt>
      <trkpt lat="43.76101" lon="7.00879">
        <ele>894.7</ele>
        <time>2014-02-01T11:24:01Z</time>
      </trkpt>
      <trkpt lat="43.76093" lon="7.00867">
        <ele>893.7</ele>
        <time>2014-02-01T11:24:05Z</time>
      </trkpt>
      <trkpt lat="43.76086" lon="7.00854">
        <ele>892.2</ele>
        <time>2014-02-01T11:24:09Z</time>
      </trkpt>
      <trkpt lat="43.76082" lon="7.00829">
        <ele>891.2</ele>
        <time>2014-02-01T11:24:27Z</time>
      </trkpt>
      <trkpt lat="43.7608" lon="7.00817">
        <ele>890.8</ele>
        <time>2014-02-01T11:24:37Z</time>
      </trkpt>
      <trkpt lat="43.76077" lon="7.00804">
        <ele>891.5</ele>
        <time>2014-02-01T11:24:47Z</time>
      </trkpt>
      <trkpt lat="43.76076" lon="7.00791">
        <ele>892.9</ele>
        <time>2014-02-01T11:24:58Z</time>
      </trkpt>
      <trkpt lat="43.76073" lon="7.00778">
        <ele>893.2</ele>
        <time>2014-02-01T11:25:08Z</time>
      </trkpt>
      <trkpt lat="43.76071" lon="7.00766">
        <ele>894.1</ele>
        <time>2014-02-01T11:25:18Z</time>
      </trkpt>
      <trkpt lat="43.76066" lon="7.0074">
        <ele>893.6</ele>
        <time>2014-02-01T11:25:38Z</time>
      </trkpt>
      <trkpt lat="43.76063" lon="7.00728">
        <ele>894.3</ele>
        <time>2014-02-01T11:25:49Z</time>
      </trkpt>
      <trkpt lat="43.76059" lon="7.00716">
        <ele>894.2</ele>
        <time>2014-02-01T11:25:58Z</time>
      </trkpt>
      <trkpt lat="43.76057" lon="7.00704">
        <ele>893.9</ele>
        <time>2014-02-01T11:26:07Z</time>
      </trkpt>
      <trkpt lat="43.76053" lon="7.00693">
        <ele>894.3</ele>
        <time>2014-02-01T11:26:18Z</time>
      </trkpt>
      <trkpt lat="43.7605" lon="7.0068">
        <ele>893.2</ele>
        <time>2014-02-01T11:26:32Z</time>
      </trkpt>
      <trkpt lat="43.76046" lon="7.00655">
        <ele>891.6</ele>
        <time>2014-02-01T11:26:57Z</time>
      </trkpt>
      <trkpt lat="43.76048" lon="7.00642">
        <ele>891.6</ele>
        <time>2014-02-01T11:27:01Z</time>
      </trkpt>
      <trkpt lat="43.76049" lon="7.00627">
        <ele>891.9</ele>
        <time>2014-02-01T11:27:05Z</time>
      </trkpt>
      <trkpt lat="43.76051" lon="7.00614">
        <ele>890.9</ele>
        <time>2014-02-01T11:27:09Z</time>
      </trkpt>
      <trkpt lat="43.76056" lon="7.00601">
        <ele>891</ele>
        <time>2014-02-01T11:27:13Z</time>
      </trkpt>
      <trkpt lat="43.7606" lon="7.0059">
        <ele>889.6</ele>
        <time>2014-02-01T11:27:18Z</time>
      </trkpt>
      <trkpt lat="43.76066" lon="7.00578">
        <ele>888.7</ele>
        <time>2014-02-01T11:27:23Z</time>
      </trkpt>
      <trkpt lat="43.76073" lon="7.00565">
        <ele>887.2</ele>
        <time>2014-02-01T11:27:27Z</time>
      </trkpt>
      <trkpt lat="43.7608" lon="7.00554">
        <ele>887</ele>
        <time>2014-02-01T11:27:30Z</time>
      </trkpt>
      <trkpt lat="43.76086" lon="7.00543">
        <ele>885.7</ele>
        <time>2014-02-01T11:27:34Z</time>
      </trkpt>
      <trkpt lat="43.76101" lon="7.00525">
        <ele>884.9</ele>
        <time>2014-02-01T11:27:42Z</time>
      </trkpt>
      <trkpt lat="43.76109" lon="7.00515">
        <ele>884.4</ele>
        <time>2014-02-01T11:27:47Z</time>
      </trkpt>
      <trkpt lat="43.76116" lon="7.00506">
        <ele>883.3</ele>
        <time>2014-02-01T11:27:51Z</time>
      </trkpt>
      <trkpt lat="43.76124" lon="7.00494">
        <ele>882.2</ele>
        <time>2014-02-01T11:27:55Z</time>
      </trkpt>
      <trkpt lat="43.76128" lon="7.00483">
        <ele>881.4</ele>
        <time>2014-02-01T11:27:58Z</time>
      </trkpt>
      <trkpt lat="43.76132" lon="7.00468">
        <ele>878.5</ele>
        <time>2014-02-01T11:28:02Z</time>
      </trkpt>
      <trkpt lat="43.76137" lon="7.00454">
        <ele>876.1</ele>
        <time>2014-02-01T11:28:05Z</time>
      </trkpt>
      <trkpt lat="43.76145" lon="7.00444">
        <ele>873.6</ele>
        <time>2014-02-01T11:28:09Z</time>
      </trkpt>
      <trkpt lat="43.76141" lon="7.00432">
        <ele>871.1</ele>
        <time>2014-02-01T11:28:17Z</time>
      </trkpt>
      <trkpt lat="43.7613" lon="7.00429">
        <ele>869.3</ele>
        <time>2014-02-01T11:28:21Z</time>
      </trkpt>
      <trkpt lat="43.76121" lon="7.00426">
        <ele>865.3</ele>
        <time>2014-02-01T11:28:25Z</time>
      </trkpt>
      <trkpt lat="43.76128" lon="7.00416">
        <ele>861.9</ele>
        <time>2014-02-01T11:28:53Z</time>
      </trkpt>
      <trkpt lat="43.76128" lon="7.00374">
        <ele>860.6</ele>
        <time>2014-02-01T11:30:28Z</time>
      </trkpt>
      <trkpt lat="43.76127" lon="7.0036">
        <ele>859.8</ele>
        <time>2014-02-01T11:30:33Z</time>
      </trkpt>
      <trkpt lat="43.7613" lon="7.00347">
        <ele>860.1</ele>
        <time>2014-02-01T11:30:44Z</time>
      </trkpt>
      <trkpt lat="43.76133" lon="7.00335">
        <ele>861.2</ele>
        <time>2014-02-01T11:30:54Z</time>
      </trkpt>
      <trkpt lat="43.76141" lon="7.00326">
        <ele>861.2</ele>
        <time>2014-02-01T11:31:07Z</time>
      </trkpt>
      <trkpt lat="43.76149" lon="7.00319">
        <ele>862.3</ele>
        <time>2014-02-01T11:31:17Z</time>
      </trkpt>
      <trkpt lat="43.76166" lon="7.00306">
        <ele>862.8</ele>
        <time>2014-02-01T11:31:35Z</time>
      </trkpt>
      <trkpt lat="43.76175" lon="7.00299">
        <ele>861.9</ele>
        <time>2014-02-01T11:31:43Z</time>
      </trkpt>
      <trkpt lat="43.76183" lon="7.00293">
        <ele>860.9</ele>
        <time>2014-02-01T11:31:51Z</time>
      </trkpt>
      <trkpt lat="43.7619" lon="7.00285">
        <ele>861.5</ele>
        <time>2014-02-01T11:31:59Z</time>
      </trkpt>
      <trkpt lat="43.76199" lon="7.00279">
        <ele>861.2</ele>
        <time>2014-02-01T11:32:07Z</time>
      </trkpt>
      <trkpt lat="43.76206" lon="7.0027">
        <ele>862.2</ele>
        <time>2014-02-01T11:32:16Z</time>
      </trkpt>
      <trkpt lat="43.76213" lon="7.00262">
        <ele>862.9</ele>
        <time>2014-02-01T11:32:25Z</time>
      </trkpt>
      <trkpt lat="43.7623" lon="7.00251">
        <ele>862.7</ele>
        <time>2014-02-01T11:32:45Z</time>
      </trkpt>
      <trkpt lat="43.76238" lon="7.00245">
        <ele>862.4</ele>
        <time>2014-02-01T11:32:55Z</time>
      </trkpt>
      <trkpt lat="43.76247" lon="7.00239">
        <ele>862.4</ele>
        <time>2014-02-01T11:33:03Z</time>
      </trkpt>
      <trkpt lat="43.76254" lon="7.0023">
        <ele>862.2</ele>
        <time>2014-02-01T11:33:13Z</time>
      </trkpt>
      <trkpt lat="43.76263" lon="7.00224">
        <ele>863.4</ele>
        <time>2014-02-01T11:33:23Z</time>
      </trkpt>
      <trkpt lat="43.7627" lon="7.00217">
        <ele>864</ele>
        <time>2014-02-01T11:33:33Z</time>
      </trkpt>
      <trkpt lat="43.76287" lon="7.00206">
        <ele>864.9</ele>
        <time>2014-02-01T11:33:54Z</time>
      </trkpt>
      <trkpt lat="43.76295" lon="7.00199">
        <ele>864.9</ele>
        <time>2014-02-01T11:34:05Z</time>
      </trkpt>
      <trkpt lat="43.76303" lon="7.00192">
        <ele>863.6</ele>
        <time>2014-02-01T11:34:16Z</time>
      </trkpt>
      <trkpt lat="43.76312" lon="7.00186">
        <ele>864</ele>
        <time>2014-02-01T11:34:29Z</time>
      </trkpt>
      <trkpt lat="43.7632" lon="7.0018">
        <ele>863.8</ele>
        <time>2014-02-01T11:34:40Z</time>
      </trkpt>
      <trkpt lat="43.76336" lon="7.00167">
        <ele>862.8</ele>
        <time>2014-02-01T11:34:59Z</time>
      </trkpt>
      <trkpt lat="43.76343" lon="7.00157">
        <ele>863.5</ele>
        <time>2014-02-01T11:35:11Z</time>
      </trkpt>
      <trkpt lat="43.76351" lon="7.00151">
        <ele>864.6</ele>
        <time>2014-02-01T11:35:26Z</time>
      </trkpt>
      <trkpt lat="43.76359" lon="7.00144">
        <ele>865</ele>
        <time>2014-02-01T11:35:55Z</time>
      </trkpt>
      <trkpt lat="43.76376" lon="7.0013">
        <ele>867.4</ele>
        <time>2014-02-01T11:36:16Z</time>
      </trkpt>
      <trkpt lat="43.76382" lon="7.0012">
        <ele>868.4</ele>
        <time>2014-02-01T11:36:28Z</time>
      </trkpt>
      <trkpt lat="43.76388" lon="7.0011">
        <ele>868.8</ele>
        <time>2014-02-01T11:36:40Z</time>
      </trkpt>
      <trkpt lat="43.76394" lon="7.00101">
        <ele>869.9</ele>
        <time>2014-02-01T11:36:51Z</time>
      </trkpt>
      <trkpt lat="43.76401" lon="7.00093">
        <ele>871.1</ele>
        <time>2014-02-01T11:37:01Z</time>
      </trkpt>
      <trkpt lat="43.76409" lon="7.0007">
        <ele>873</ele>
        <time>2014-02-01T11:37:31Z</time>
      </trkpt>
      <trkpt lat="43.76411" lon="7.00057">
        <ele>875.7</ele>
        <time>2014-02-01T11:37:45Z</time>
      </trkpt>
      <trkpt lat="43.76412" lon="7.00044">
        <ele>876.1</ele>
        <time>2014-02-01T11:37:58Z</time>
      </trkpt>
      <trkpt lat="43.76415" lon="7.00032">
        <ele>877.4</ele>
        <time>2014-02-01T11:38:09Z</time>
      </trkpt>
      <trkpt lat="43.76416" lon="7.00007">
        <ele>879.1</ele>
        <time>2014-02-01T11:38:32Z</time>
      </trkpt>
      <trkpt lat="43.76418" lon="6.99994">
        <ele>880.8</ele>
        <time>2014-02-01T11:38:44Z</time>
      </trkpt>
      <trkpt lat="43.7642" lon="6.99982">
        <ele>880.5</ele>
        <time>2014-02-01T11:38:54Z</time>
      </trkpt>
      <trkpt lat="43.76422" lon="6.99969">
        <ele>880.3</ele>
        <time>2014-02-01T11:39:04Z</time>
      </trkpt>
      <trkpt lat="43.76423" lon="6.99956">
        <ele>879.8</ele>
        <time>2014-02-01T11:39:18Z</time>
      </trkpt>
      <trkpt lat="43.76438" lon="6.9994">
        <ele>883.1</ele>
        <time>2014-02-01T11:39:40Z</time>
      </trkpt>
      <trkpt lat="43.76447" lon="6.99936">
        <ele>884.7</ele>
        <time>2014-02-01T11:39:52Z</time>
      </trkpt>
      <trkpt lat="43.76456" lon="6.99936">
        <ele>885.2</ele>
        <time>2014-02-01T11:40:02Z</time>
      </trkpt>
      <trkpt lat="43.76464" lon="6.99931">
        <ele>886.4</ele>
        <time>2014-02-01T11:40:20Z</time>
      </trkpt>
      <trkpt lat="43.76468" lon="6.9991">
        <ele>888.2</ele>
        <time>2014-02-01T11:40:46Z</time>
      </trkpt>
      <trkpt lat="43.76477" lon="6.99915">
        <ele>889.9</ele>
        <time>2014-02-01T11:41:42Z</time>
      </trkpt>
      <trkpt lat="43.76492" lon="6.9993">
        <ele>890</ele>
        <time>2014-02-01T11:42:02Z</time>
      </trkpt>
      <trkpt lat="43.765" lon="6.99937">
        <ele>891.1</ele>
        <time>2014-02-01T11:42:11Z</time>
      </trkpt>
      <trkpt lat="43.76508" lon="6.99943">
        <ele>891</ele>
        <time>2014-02-01T11:42:20Z</time>
      </trkpt>
      <trkpt lat="43.76518" lon="6.99939">
        <ele>892.3</ele>
        <time>2014-02-01T11:42:31Z</time>
      </trkpt>
      <trkpt lat="43.76527" lon="6.99937">
        <ele>891.6</ele>
        <time>2014-02-01T11:42:40Z</time>
      </trkpt>
      <trkpt lat="43.76537" lon="6.99937">
        <ele>892.7</ele>
        <time>2014-02-01T11:42:50Z</time>
      </trkpt>
      <trkpt lat="43.76556" lon="6.99934">
        <ele>893.4</ele>
        <time>2014-02-01T11:43:09Z</time>
      </trkpt>
      <trkpt lat="43.76566" lon="6.99933">
        <ele>892.7</ele>
        <time>2014-02-01T11:43:19Z</time>
      </trkpt>
      <trkpt lat="43.76575" lon="6.99933">
        <ele>893.1</ele>
        <time>2014-02-01T11:43:29Z</time>
      </trkpt>
      <trkpt lat="43.76585" lon="6.99932">
        <ele>893.5</ele>
        <time>2014-02-01T11:43:38Z</time>
      </trkpt>
      <trkpt lat="43.76594" lon="6.99932">
        <ele>893.1</ele>
        <time>2014-02-01T11:43:47Z</time>
      </trkpt>
      <trkpt lat="43.76603" lon="6.99932">
        <ele>894.4</ele>
        <time>2014-02-01T11:43:56Z</time>
      </trkpt>
      <trkpt lat="43.76622" lon="6.99931">
        <ele>894.5</ele>
        <time>2014-02-01T11:44:15Z</time>
      </trkpt>
      <trkpt lat="43.76631" lon="6.9993">
        <ele>893</ele>
        <time>2014-02-01T11:44:25Z</time>
      </trkpt>
      <trkpt lat="43.76642" lon="6.9993">
        <ele>893.1</ele>
        <time>2014-02-01T11:44:34Z</time>
      </trkpt>
      <trkpt lat="43.76652" lon="6.99932">
        <ele>893.3</ele>
        <time>2014-02-01T11:44:43Z</time>
      </trkpt>
      <trkpt lat="43.76661" lon="6.99933">
        <ele>894</ele>
        <time>2014-02-01T11:44:52Z</time>
      </trkpt>
      <trkpt lat="43.76671" lon="6.99932">
        <ele>893.2</ele>
        <time>2014-02-01T11:45:01Z</time>
      </trkpt>
      <trkpt lat="43.76689" lon="6.99926">
        <ele>892.4</ele>
        <time>2014-02-01T11:45:18Z</time>
      </trkpt>
      <trkpt lat="43.76699" lon="6.99925">
        <ele>892.8</ele>
        <time>2014-02-01T11:45:28Z</time>
      </trkpt>
      <trkpt lat="43.76709" lon="6.99923">
        <ele>892.8</ele>
        <time>2014-02-01T11:45:38Z</time>
      </trkpt>
      <trkpt lat="43.76718" lon="6.9992">
        <ele>892.1</ele>
        <time>2014-02-01T11:45:48Z</time>
      </trkpt>
      <trkpt lat="43.76727" lon="6.99917">
        <ele>893.1</ele>
        <time>2014-02-01T11:45:58Z</time>
      </trkpt>
      <trkpt lat="43.76737" lon="6.99916">
        <ele>892.3</ele>
        <time>2014-02-01T11:46:07Z</time>
      </trkpt>
      <trkpt lat="43.76755" lon="6.99913">
        <ele>892.7</ele>
        <time>2014-02-01T11:46:26Z</time>
      </trkpt>
      <trkpt lat="43.76756" lon="6.99901">
        <ele>892.4</ele>
        <time>2014-02-01T11:46:47Z</time>
      </trkpt>
      <trkpt lat="43.7676" lon="6.99889">
        <ele>891.3</ele>
        <time>2014-02-01T11:46:57Z</time>
      </trkpt>
      <trkpt lat="43.76769" lon="6.99883">
        <ele>891.6</ele>
        <time>2014-02-01T11:47:07Z</time>
      </trkpt>
      <trkpt lat="43.76778" lon="6.99884">
        <ele>891.8</ele>
        <time>2014-02-01T11:47:18Z</time>
      </trkpt>
      <trkpt lat="43.76797" lon="6.99883">
        <ele>893</ele>
        <time>2014-02-01T11:47:40Z</time>
      </trkpt>
      <trkpt lat="43.76806" lon="6.9988">
        <ele>893.1</ele>
        <time>2014-02-01T11:47:51Z</time>
      </trkpt>
      <trkpt lat="43.76816" lon="6.99878">
        <ele>891.8</ele>
        <time>2014-02-01T11:48:01Z</time>
      </trkpt>
      <trkpt lat="43.76824" lon="6.99872">
        <ele>892.3</ele>
        <time>2014-02-01T11:48:11Z</time>
      </trkpt>
      <trkpt lat="43.76833" lon="6.99867">
        <ele>891.5</ele>
        <time>2014-02-01T11:48:20Z</time>
      </trkpt>
      <trkpt lat="43.76852" lon="6.99866">
        <ele>891.1</ele>
        <time>2014-02-01T11:48:42Z</time>
      </trkpt>
      <trkpt lat="43.7686" lon="6.99861">
        <ele>890.3</ele>
        <time>2014-02-01T11:48:51Z</time>
      </trkpt>
      <trkpt lat="43.76868" lon="6.99854">
        <ele>889.3</ele>
        <time>2014-02-01T11:48:59Z</time>
      </trkpt>
      <trkpt lat="43.76877" lon="6.99848">
        <ele>888.8</ele>
        <time>2014-02-01T11:49:08Z</time>
      </trkpt>
      <trkpt lat="43.76886" lon="6.99843">
        <ele>888.4</ele>
        <time>2014-02-01T11:49:17Z</time>
      </trkpt>
      <trkpt lat="43.76895" lon="6.9984">
        <ele>888.4</ele>
        <time>2014-02-01T11:49:26Z</time>
      </trkpt>
      <trkpt lat="43.76892" lon="6.9983">
        <ele>887.6</ele>
        <time>2014-02-01T11:51:21Z</time>
      </trkpt>
      <trkpt lat="43.76873" lon="6.99816">
        <ele>885.9</ele>
        <time>2014-02-01T11:51:31Z</time>
      </trkpt>
      <trkpt lat="43.76863" lon="6.99809">
        <ele>884.5</ele>
        <time>2014-02-01T11:51:35Z</time>
      </trkpt>
      <trkpt lat="43.76853" lon="6.99805">
        <ele>883.1</ele>
        <time>2014-02-01T11:51:38Z</time>
      </trkpt>
      <trkpt lat="43.76845" lon="6.99799">
        <ele>882.1</ele>
        <time>2014-02-01T11:51:41Z</time>
      </trkpt>
      <trkpt lat="43.76834" lon="6.99794">
        <ele>880.1</ele>
        <time>2014-02-01T11:51:44Z</time>
      </trkpt>
      <trkpt lat="43.76821" lon="6.9979">
        <ele>878.6</ele>
        <time>2014-02-01T11:51:47Z</time>
      </trkpt>
      <trkpt lat="43.76812" lon="6.99783">
        <ele>877</ele>
        <time>2014-02-01T11:51:50Z</time>
      </trkpt>
      <trkpt lat="43.76801" lon="6.99777">
        <ele>874.6</ele>
        <time>2014-02-01T11:51:53Z</time>
      </trkpt>
      <trkpt lat="43.76792" lon="6.99774">
        <ele>873.2</ele>
        <time>2014-02-01T11:51:55Z</time>
      </trkpt>
      <trkpt lat="43.76779" lon="6.99768">
        <ele>871</ele>
        <time>2014-02-01T11:51:58Z</time>
      </trkpt>
      <trkpt lat="43.76768" lon="6.99756">
        <ele>869.1</ele>
        <time>2014-02-01T11:52:01Z</time>
      </trkpt>
      <trkpt lat="43.76758" lon="6.9975">
        <ele>865.5</ele>
        <time>2014-02-01T11:52:04Z</time>
      </trkpt>
      <trkpt lat="43.76749" lon="6.9975">
        <ele>861.4</ele>
        <time>2014-02-01T11:52:07Z</time>
      </trkpt>
      <trkpt lat="43.76737" lon="6.99751">
        <ele>859.2</ele>
        <time>2014-02-01T11:52:10Z</time>
      </trkpt>
      <trkpt lat="43.76725" lon="6.99744">
        <ele>857.3</ele>
        <time>2014-02-01T11:52:13Z</time>
      </trkpt>
      <trkpt lat="43.76713" lon="6.9974">
        <ele>854.2</ele>
        <time>2014-02-01T11:52:16Z</time>
      </trkpt>
      <trkpt lat="43.76702" lon="6.99732">
        <ele>851.9</ele>
        <time>2014-02-01T11:52:19Z</time>
      </trkpt>
      <trkpt lat="43.7669" lon="6.99727">
        <ele>849.3</ele>
        <time>2014-02-01T11:52:22Z</time>
      </trkpt>
      <trkpt lat="43.76667" lon="6.9972">
        <ele>845.2</ele>
        <time>2014-02-01T11:52:27Z</time>
      </trkpt>
      <trkpt lat="43.76658" lon="6.99716">
        <ele>843.4</ele>
        <time>2014-02-01T11:52:29Z</time>
      </trkpt>
      <trkpt lat="43.76648" lon="6.99709">
        <ele>841.2</ele>
        <time>2014-02-01T11:52:32Z</time>
      </trkpt>
      <trkpt lat="43.76639" lon="6.99703">
        <ele>838.8</ele>
        <time>2014-02-01T11:52:35Z</time>
      </trkpt>
      <trkpt lat="43.7663" lon="6.99695">
        <ele>836.1</ele>
        <time>2014-02-01T11:52:38Z</time>
      </trkpt>
      <trkpt lat="43.76618" lon="6.99687">
        <ele>833.7</ele>
        <time>2014-02-01T11:52:41Z</time>
      </trkpt>
      <trkpt lat="43.76607" lon="6.99678">
        <ele>830.9</ele>
        <time>2014-02-01T11:52:44Z</time>
      </trkpt>
      <trkpt lat="43.76598" lon="6.9967">
        <ele>827.2</ele>
        <time>2014-02-01T11:52:48Z</time>
      </trkpt>
      <trkpt lat="43.76588" lon="6.9966">
        <ele>824.9</ele>
        <time>2014-02-01T11:52:51Z</time>
      </trkpt>
      <trkpt lat="43.76579" lon="6.99654">
        <ele>824</ele>
        <time>2014-02-01T11:52:53Z</time>
      </trkpt>
      <trkpt lat="43.76569" lon="6.99645">
        <ele>821.9</ele>
        <time>2014-02-01T11:52:56Z</time>
      </trkpt>
      <trkpt lat="43.76561" lon="6.99639">
        <ele>819.4</ele>
        <time>2014-02-01T11:52:58Z</time>
      </trkpt>
      <trkpt lat="43.76553" lon="6.99631">
        <ele>817.7</ele>
        <time>2014-02-01T11:53:00Z</time>
      </trkpt>
      <trkpt lat="43.76545" lon="6.99619">
        <ele>815</ele>
        <time>2014-02-01T11:53:03Z</time>
      </trkpt>
      <trkpt lat="43.76535" lon="6.99608">
        <ele>811.9</ele>
        <time>2014-02-01T11:53:06Z</time>
      </trkpt>
      <trkpt lat="43.76528" lon="6.996">
        <ele>810.2</ele>
        <time>2014-02-01T11:53:08Z</time>
      </trkpt>
      <trkpt lat="43.76518" lon="6.99594">
        <ele>807.3</ele>
        <time>2014-02-01T11:53:11Z</time>
      </trkpt>
      <trkpt lat="43.76529" lon="6.99589">
        <ele>803.3</ele>
        <time>2014-02-01T11:53:18Z</time>
      </trkpt>
      <trkpt lat="43.76532" lon="6.99576">
        <ele>800.3</ele>
        <time>2014-02-01T11:53:25Z</time>
      </trkpt>
      <trkpt lat="43.76551" lon="6.99563">
        <ele>794.9</ele>
        <time>2014-02-01T11:53:32Z</time>
      </trkpt>
      <trkpt lat="43.7656" lon="6.99556">
        <ele>791.8</ele>
        <time>2014-02-01T11:53:35Z</time>
      </trkpt>
      <trkpt lat="43.76556" lon="6.99543">
        <ele>786.7</ele>
        <time>2014-02-01T11:53:42Z</time>
      </trkpt>
      <trkpt lat="43.76547" lon="6.99534">
        <ele>785.7</ele>
        <time>2014-02-01T11:53:45Z</time>
      </trkpt>
      <trkpt lat="43.76543" lon="6.99523">
        <ele>783.2</ele>
        <time>2014-02-01T11:53:49Z</time>
      </trkpt>
      <trkpt lat="43.76537" lon="6.99513">
        <ele>779.8</ele>
        <time>2014-02-01T11:53:53Z</time>
      </trkpt>
      <trkpt lat="43.7653" lon="6.99504">
        <ele>777.2</ele>
        <time>2014-02-01T11:53:57Z</time>
      </trkpt>
      <trkpt lat="43.7652" lon="6.99496">
        <ele>774.4</ele>
        <time>2014-02-01T11:54:00Z</time>
      </trkpt>
      <trkpt lat="43.76514" lon="6.99487">
        <ele>771.5</ele>
        <time>2014-02-01T11:54:03Z</time>
      </trkpt>
      <trkpt lat="43.76506" lon="6.99476">
        <ele>768.1</ele>
        <time>2014-02-01T11:54:06Z</time>
      </trkpt>
      <trkpt lat="43.76514" lon="6.99468">
        <ele>764.6</ele>
        <time>2014-02-01T11:54:11Z</time>
      </trkpt>
      <trkpt lat="43.76523" lon="6.99464">
        <ele>762.6</ele>
        <time>2014-02-01T11:54:14Z</time>
      </trkpt>
      <trkpt lat="43.76532" lon="6.9946">
        <ele>761.8</ele>
        <time>2014-02-01T11:54:16Z</time>
      </trkpt>
      <trkpt lat="43.76541" lon="6.99452">
        <ele>760.4</ele>
        <time>2014-02-01T11:54:18Z</time>
      </trkpt>
      <trkpt lat="43.76549" lon="6.99443">
        <ele>756.6</ele>
        <time>2014-02-01T11:54:21Z</time>
      </trkpt>
      <trkpt lat="43.76561" lon="6.9944">
        <ele>753.9</ele>
        <time>2014-02-01T11:54:24Z</time>
      </trkpt>
      <trkpt lat="43.76571" lon="6.99439">
        <ele>751.4</ele>
        <time>2014-02-01T11:54:27Z</time>
      </trkpt>
      <trkpt lat="43.76553" lon="6.99423">
        <ele>745.2</ele>
        <time>2014-02-01T11:54:37Z</time>
      </trkpt>
      <trkpt lat="43.76542" lon="6.99423">
        <ele>744.9</ele>
        <time>2014-02-01T11:54:40Z</time>
      </trkpt>
      <trkpt lat="43.76531" lon="6.99418">
        <ele>743.3</ele>
        <time>2014-02-01T11:54:44Z</time>
      </trkpt>
      <trkpt lat="43.76522" lon="6.99412">
        <ele>739.7</ele>
        <time>2014-02-01T11:54:48Z</time>
      </trkpt>
      <trkpt lat="43.76514" lon="6.99403">
        <ele>738.7</ele>
        <time>2014-02-01T11:54:51Z</time>
      </trkpt>
      <trkpt lat="43.76524" lon="6.99395">
        <ele>732.8</ele>
        <time>2014-02-01T11:54:59Z</time>
      </trkpt>
      <trkpt lat="43.76531" lon="6.99385">
        <ele>731.9</ele>
        <time>2014-02-01T11:55:01Z</time>
      </trkpt>
      <trkpt lat="43.76541" lon="6.99374">
        <ele>731</ele>
        <time>2014-02-01T11:55:03Z</time>
      </trkpt>
      <trkpt lat="43.76549" lon="6.9937">
        <ele>729</ele>
        <time>2014-02-01T11:55:05Z</time>
      </trkpt>
      <trkpt lat="43.76542" lon="6.9936">
        <ele>719.8</ele>
        <time>2014-02-01T11:55:15Z</time>
      </trkpt>
      <trkpt lat="43.76548" lon="6.99349">
        <ele>717.2</ele>
        <time>2014-02-01T11:55:20Z</time>
      </trkpt>
      <trkpt lat="43.76558" lon="6.99347">
        <ele>716.2</ele>
        <time>2014-02-01T11:55:23Z</time>
      </trkpt>
      <trkpt lat="43.76569" lon="6.99348">
        <ele>713.7</ele>
        <time>2014-02-01T11:55:27Z</time>
      </trkpt>
      <trkpt lat="43.7656" lon="6.99337">
        <ele>710.9</ele>
        <time>2014-02-01T11:55:34Z</time>
      </trkpt>
      <trkpt lat="43.76535" lon="6.99321">
        <ele>706.4</ele>
        <time>2014-02-01T12:00:15Z</time>
      </trkpt>
      <trkpt lat="43.76526" lon="6.9932">
        <ele>705.5</ele>
        <time>2014-02-01T12:00:17Z</time>
      </trkpt>
      <trkpt lat="43.76516" lon="6.99317">
        <ele>704.3</ele>
        <time>2014-02-01T12:00:19Z</time>
      </trkpt>
      <trkpt lat="43.76507" lon="6.9931">
        <ele>702.2</ele>
        <time>2014-02-01T12:00:21Z</time>
      </trkpt>
      <trkpt lat="43.76498" lon="6.99303">
        <ele>700</ele>
        <time>2014-02-01T12:00:23Z</time>
      </trkpt>
      <trkpt lat="43.76489" lon="6.99298">
        <ele>697.7</ele>
        <time>2014-02-01T12:00:25Z</time>
      </trkpt>
      <trkpt lat="43.7648" lon="6.99294">
        <ele>695.2</ele>
        <time>2014-02-01T12:00:27Z</time>
      </trkpt>
      <trkpt lat="43.76484" lon="6.9928">
        <ele>684.7</ele>
        <time>2014-02-01T12:00:34Z</time>
      </trkpt>
      <trkpt lat="43.76482" lon="6.99266">
        <ele>680.8</ele>
        <time>2014-02-01T12:00:38Z</time>
      </trkpt>
      <trkpt lat="43.76473" lon="6.99256">
        <ele>676.2</ele>
        <time>2014-02-01T12:00:41Z</time>
      </trkpt>
      <trkpt lat="43.76463" lon="6.99251">
        <ele>672.1</ele>
        <time>2014-02-01T12:00:44Z</time>
      </trkpt>
      <trkpt lat="43.76467" lon="6.99238">
        <ele>663.8</ele>
        <time>2014-02-01T12:01:00Z</time>
      </trkpt>
      <trkpt lat="43.76475" lon="6.99231">
        <ele>663</ele>
        <time>2014-02-01T12:01:04Z</time>
      </trkpt>
      <trkpt lat="43.76478" lon="6.99217">
        <ele>658.1</ele>
        <time>2014-02-01T12:01:12Z</time>
      </trkpt>
      <trkpt lat="43.76475" lon="6.99194">
        <ele>652.8</ele>
        <time>2014-02-01T12:01:21Z</time>
      </trkpt>
      <trkpt lat="43.76474" lon="6.9918">
        <ele>649.2</ele>
        <time>2014-02-01T12:01:26Z</time>
      </trkpt>
      <trkpt lat="43.76468" lon="6.99171">
        <ele>645.5</ele>
        <time>2014-02-01T12:01:30Z</time>
      </trkpt>
      <trkpt lat="43.7647" lon="6.99157">
        <ele>644</ele>
        <time>2014-02-01T12:01:32Z</time>
      </trkpt>
      <trkpt lat="43.76475" lon="6.99143">
        <ele>642.5</ele>
        <time>2014-02-01T12:01:34Z</time>
      </trkpt>
      <trkpt lat="43.76484" lon="6.99138">
        <ele>637.4</ele>
        <time>2014-02-01T12:01:40Z</time>
      </trkpt>
      <trkpt lat="43.7648" lon="6.99125">
        <ele>636</ele>
        <time>2014-02-01T12:01:43Z</time>
      </trkpt>
      <trkpt lat="43.76472" lon="6.99118">
        <ele>634.9</ele>
        <time>2014-02-01T12:01:46Z</time>
      </trkpt>
      <trkpt lat="43.7646" lon="6.99118">
        <ele>631.9</ele>
        <time>2014-02-01T12:01:50Z</time>
      </trkpt>
      <trkpt lat="43.76449" lon="6.99123">
        <ele>629.4</ele>
        <time>2014-02-01T12:01:53Z</time>
      </trkpt>
      <trkpt lat="43.76439" lon="6.99127">
        <ele>626.4</ele>
        <time>2014-02-01T12:01:56Z</time>
      </trkpt>
      <trkpt lat="43.76433" lon="6.99116">
        <ele>619.1</ele>
        <time>2014-02-01T12:02:01Z</time>
      </trkpt>
      <trkpt lat="43.76432" lon="6.991">
        <ele>614.1</ele>
        <time>2014-02-01T12:02:08Z</time>
      </trkpt>
      <trkpt lat="43.76437" lon="6.99089">
        <ele>611.7</ele>
        <time>2014-02-01T12:02:10Z</time>
      </trkpt>
      <trkpt lat="43.76433" lon="6.99077">
        <ele>608.5</ele>
        <time>2014-02-01T12:02:14Z</time>
      </trkpt>
      <trkpt lat="43.76434" lon="6.99051">
        <ele>604.1</ele>
        <time>2014-02-01T12:02:19Z</time>
      </trkpt>
      <trkpt lat="43.76425" lon="6.99046">
        <ele>598.4</ele>
        <time>2014-02-01T12:02:26Z</time>
      </trkpt>
      <trkpt lat="43.76414" lon="6.99041">
        <ele>593.9</ele>
        <time>2014-02-01T12:02:31Z</time>
      </trkpt>
      <trkpt lat="43.76404" lon="6.99046">
        <ele>590.7</ele>
        <time>2014-02-01T12:02:35Z</time>
      </trkpt>
      <trkpt lat="43.76394" lon="6.99056">
        <ele>587.2</ele>
        <time>2014-02-01T12:02:39Z</time>
      </trkpt>
      <trkpt lat="43.7639" lon="6.99039">
        <ele>582.5</ele>
        <time>2014-02-01T12:02:43Z</time>
      </trkpt>
      <trkpt lat="43.76391" lon="6.99026">
        <ele>579.1</ele>
        <time>2014-02-01T12:02:46Z</time>
      </trkpt>
      <trkpt lat="43.76391" lon="6.99013">
        <ele>576.5</ele>
        <time>2014-02-01T12:02:49Z</time>
      </trkpt>
      <trkpt lat="43.76395" lon="6.99">
        <ele>573.4</ele>
        <time>2014-02-01T12:02:52Z</time>
      </trkpt>
      <trkpt lat="43.76386" lon="6.98995">
        <ele>567.9</ele>
        <time>2014-02-01T12:02:58Z</time>
      </trkpt>
      <trkpt lat="43.76377" lon="6.99">
        <ele>566</ele>
        <time>2014-02-01T12:03:01Z</time>
      </trkpt>
      <trkpt lat="43.76368" lon="6.98992">
        <ele>559.4</ele>
        <time>2014-02-01T12:03:12Z</time>
      </trkpt>
      <trkpt lat="43.76357" lon="6.98999">
        <ele>556.1</ele>
        <time>2014-02-01T12:03:16Z</time>
      </trkpt>
      <trkpt lat="43.76341" lon="6.99014">
        <ele>552.3</ele>
        <time>2014-02-01T12:03:22Z</time>
      </trkpt>
      <trkpt lat="43.76332" lon="6.99017">
        <ele>547.7</ele>
        <time>2014-02-01T12:03:26Z</time>
      </trkpt>
      <trkpt lat="43.76323" lon="6.99022">
        <ele>544.1</ele>
        <time>2014-02-01T12:03:55Z</time>
      </trkpt>
      <trkpt lat="43.76319" lon="6.99034">
        <ele>543.7</ele>
        <time>2014-02-01T12:05:35Z</time>
      </trkpt>
      <trkpt lat="43.76312" lon="6.99059">
        <ele>542.5</ele>
        <time>2014-02-01T12:05:41Z</time>
      </trkpt>
      <trkpt lat="43.76307" lon="6.99069">
        <ele>541.6</ele>
        <time>2014-02-01T12:05:44Z</time>
      </trkpt>
      <trkpt lat="43.763" lon="6.99077">
        <ele>539.5</ele>
        <time>2014-02-01T12:05:48Z</time>
      </trkpt>
      <trkpt lat="43.76289" lon="6.9907">
        <ele>536.5</ele>
        <time>2014-02-01T12:06:01Z</time>
      </trkpt>
      <trkpt lat="43.76282" lon="6.9906">
        <ele>535.3</ele>
        <time>2014-02-01T12:06:03Z</time>
      </trkpt>
      <trkpt lat="43.76277" lon="6.99049">
        <ele>531.3</ele>
        <time>2014-02-01T12:06:06Z</time>
      </trkpt>
      <trkpt lat="43.76271" lon="6.99039">
        <ele>526.3</ele>
        <time>2014-02-01T12:06:10Z</time>
      </trkpt>
      <trkpt lat="43.76262" lon="6.99029">
        <ele>523.6</ele>
        <time>2014-02-01T12:06:13Z</time>
      </trkpt>
      <trkpt lat="43.76254" lon="6.9902">
        <ele>521.6</ele>
        <time>2014-02-01T12:06:15Z</time>
      </trkpt>
      <trkpt lat="43.76246" lon="6.99009">
        <ele>520</ele>
        <time>2014-02-01T12:06:17Z</time>
      </trkpt>
      <trkpt lat="43.76238" lon="6.99003">
        <ele>517.4</ele>
        <time>2014-02-01T12:06:19Z</time>
      </trkpt>
      <trkpt lat="43.76231" lon="6.98991">
        <ele>512.7</ele>
        <time>2014-02-01T12:06:23Z</time>
      </trkpt>
      <trkpt lat="43.76227" lon="6.9898">
        <ele>510.3</ele>
        <time>2014-02-01T12:06:26Z</time>
      </trkpt>
      <trkpt lat="43.7622" lon="6.98968">
        <ele>509</ele>
        <time>2014-02-01T12:06:28Z</time>
      </trkpt>
      <trkpt lat="43.76211" lon="6.98953">
        <ele>507.9</ele>
        <time>2014-02-01T12:06:30Z</time>
      </trkpt>
      <trkpt lat="43.76201" lon="6.98934">
        <ele>507.2</ele>
        <time>2014-02-01T12:06:32Z</time>
      </trkpt>
      <trkpt lat="43.76197" lon="6.98922">
        <ele>506.9</ele>
        <time>2014-02-01T12:06:33Z</time>
      </trkpt>
      <trkpt lat="43.76195" lon="6.98909">
        <ele>506.1</ele>
        <time>2014-02-01T12:06:34Z</time>
      </trkpt>
      <trkpt lat="43.76194" lon="6.98896">
        <ele>505.5</ele>
        <time>2014-02-01T12:06:35Z</time>
      </trkpt>
      <trkpt lat="43.76196" lon="6.98884">
        <ele>505.1</ele>
        <time>2014-02-01T12:06:36Z</time>
      </trkpt>
      <trkpt lat="43.76199" lon="6.98871">
        <ele>503.8</ele>
        <time>2014-02-01T12:06:37Z</time>
      </trkpt>
      <trkpt lat="43.76206" lon="6.98845">
        <ele>502.2</ele>
        <time>2014-02-01T12:06:39Z</time>
      </trkpt>
      <trkpt lat="43.76212" lon="6.98832">
        <ele>500.8</ele>
        <time>2014-02-01T12:06:40Z</time>
      </trkpt>
      <trkpt lat="43.76219" lon="6.98821">
        <ele>499.8</ele>
        <time>2014-02-01T12:06:41Z</time>
      </trkpt>
      <trkpt lat="43.76227" lon="6.98813">
        <ele>499</ele>
        <time>2014-02-01T12:06:42Z</time>
      </trkpt>
      <trkpt lat="43.76237" lon="6.98806">
        <ele>498.5</ele>
        <time>2014-02-01T12:06:43Z</time>
      </trkpt>
      <trkpt lat="43.76246" lon="6.98798">
        <ele>497</ele>
        <time>2014-02-01T12:06:44Z</time>
      </trkpt>
      <trkpt lat="43.76253" lon="6.98791">
        <ele>495.9</ele>
        <time>2014-02-01T12:06:45Z</time>
      </trkpt>
      <trkpt lat="43.7626" lon="6.98782">
        <ele>495</ele>
        <time>2014-02-01T12:06:46Z</time>
      </trkpt>
      <trkpt lat="43.76267" lon="6.98774">
        <ele>493.4</ele>
        <time>2014-02-01T12:06:47Z</time>
      </trkpt>
      <trkpt lat="43.76282" lon="6.98761">
        <ele>491.2</ele>
        <time>2014-02-01T12:06:49Z</time>
      </trkpt>
      <trkpt lat="43.76295" lon="6.98757">
        <ele>489.6</ele>
        <time>2014-02-01T12:06:51Z</time>
      </trkpt>
      <trkpt lat="43.76307" lon="6.98756">
        <ele>488.5</ele>
        <time>2014-02-01T12:06:53Z</time>
      </trkpt>
      <trkpt lat="43.76315" lon="6.98751">
        <ele>487.3</ele>
        <time>2014-02-01T12:08:31Z</time>
      </trkpt>
    </trkseg>
  </trk>
</gpx>